<?xml version='1.0' encoding='UTF-8'?><gpx version="1.1" creator="JPX - https://github.com/jenetics/jpx" xmlns="http://www.topografix.com/GPX/1/1"><trk><trkseg><trkpt lat="46.409524622724696" lon="11.38745905379174"><ele>810.0</ele><time>2026-04-19T15:41:00Z</time></trkpt><trkpt lat="46.40956674617018" lon="11.387594143830592"><ele>810.0</ele><time>2026-04-19T15:41:02Z</time></trkpt><trkpt lat="46.409566019935184" lon="11.387768076937089"><ele>810.0</ele><time>2026-04-19T15:41:04Z</time></trkpt><trkpt lat="46.40955390533276" lon="11.38787750267905"><ele>810.0</ele><time>2026-04-19T15:41:05Z</time></trkpt><trkpt lat="46.40953463349187" lon="11.387984176978078"><ele>810.0</ele><time>2026-04-19T15:41:06Z</time></trkpt><trkpt lat="46.40951408291057" lon="11.388102753957055"><ele>809.5</ele><time>2026-04-19T15:41:07Z</time></trkpt><trkpt lat="46.40949355588985" lon="11.388212964615857"><ele>809.0</ele><time>2026-04-19T15:41:08Z</time></trkpt><trkpt lat="46.40946609245873" lon="11.388329411120775"><ele>808.5</ele><time>2026-04-19T15:41:09Z</time></trkpt><trkpt lat="46.40942628991704" lon="11.388424973760388"><ele>808.0</ele><time>2026-04-19T15:41:10Z</time></trkpt><trkpt lat="46.40939895014101" lon="11.3885146664445"><ele>807.5</ele><time>2026-04-19T15:41:11Z</time></trkpt><trkpt lat="46.40939616247588" lon="11.38864830976642"><ele>807.0</ele><time>2026-04-19T15:41:13Z</time></trkpt><trkpt lat="46.40938704102987" lon="11.388790698884556"><ele>805.5</ele><time>2026-04-19T15:41:14Z</time></trkpt><trkpt lat="46.409345029019896" lon="11.388898131032398"><ele>804.0</ele><time>2026-04-19T15:41:15Z</time></trkpt><trkpt lat="46.40931666973334" lon="11.389010440832061"><ele>802.5</ele><time>2026-04-19T15:41:16Z</time></trkpt><trkpt lat="46.409288453283146" lon="11.38913362436208"><ele>801.0</ele><time>2026-04-19T15:41:17Z</time></trkpt><trkpt lat="46.40929350203006" lon="11.389224722296039"><ele>799.5</ele><time>2026-04-19T15:41:18Z</time></trkpt><trkpt lat="46.40930505875664" lon="11.389371546283833"><ele>798.0</ele><time>2026-04-19T15:41:19Z</time></trkpt><trkpt lat="46.40930067077551" lon="11.389493951265804"><ele>798.0</ele><time>2026-04-19T15:41:20Z</time></trkpt><trkpt lat="46.409297996834944" lon="11.389656959006018"><ele>798.0</ele><time>2026-04-19T15:41:21Z</time></trkpt><trkpt lat="46.40930973278055" lon="11.389806794667722"><ele>798.0</ele><time>2026-04-19T15:41:22Z</time></trkpt><trkpt lat="46.40930981132972" lon="11.389943570126484"><ele>798.0</ele><time>2026-04-19T15:41:23Z</time></trkpt><trkpt lat="46.40931254928285" lon="11.390094725420427"><ele>798.0</ele><time>2026-04-19T15:41:24Z</time></trkpt><trkpt lat="46.409319646412214" lon="11.390248405423684"><ele>800.8</ele><time>2026-04-19T15:41:25Z</time></trkpt><trkpt lat="46.40931315403701" lon="11.390344855710929"><ele>803.5999999999999</ele><time>2026-04-19T15:41:26Z</time></trkpt><trkpt lat="46.40932098250818" lon="11.390507215732177"><ele>806.4000000000001</ele><time>2026-04-19T15:41:28Z</time></trkpt><trkpt lat="46.409369883938155" lon="11.390660417293619"><ele>809.2</ele><time>2026-04-19T15:41:30Z</time></trkpt><trkpt lat="46.409416462007044" lon="11.390815466183293"><ele>812.0</ele><time>2026-04-19T15:41:32Z</time></trkpt><trkpt lat="46.40942029596449" lon="11.390963943512808"><ele>812.8</ele><time>2026-04-19T15:41:34Z</time></trkpt><trkpt lat="46.40944756490035" lon="11.39112563071446"><ele>813.6</ele><time>2026-04-19T15:41:36Z</time></trkpt><trkpt lat="46.4094885423418" lon="11.391345958593124"><ele>814.4</ele><time>2026-04-19T15:41:38Z</time></trkpt><trkpt lat="46.4094746943933" lon="11.391441076190219"><ele>815.1999999999999</ele><time>2026-04-19T15:41:39Z</time></trkpt><trkpt lat="46.40946264424153" lon="11.391555888371371"><ele>816.0</ele><time>2026-04-19T15:41:40Z</time></trkpt><trkpt lat="46.40945203755585" lon="11.391647262916416"><ele>817.3333333333334</ele><time>2026-04-19T15:41:41Z</time></trkpt><trkpt lat="46.409433488784266" lon="11.39174431793414"><ele>818.6666666666667</ele><time>2026-04-19T15:41:42Z</time></trkpt><trkpt lat="46.40939396125748" lon="11.391843949078957"><ele>820.0</ele><time>2026-04-19T15:41:43Z</time></trkpt><trkpt lat="46.40935771114975" lon="11.391966727242297"><ele>821.3333333333334</ele><time>2026-04-19T15:41:44Z</time></trkpt><trkpt lat="46.40932324155462" lon="11.392095131819435"><ele>822.6666666666667</ele><time>2026-04-19T15:41:45Z</time></trkpt><trkpt lat="46.40929615854733" lon="11.3922370636072"><ele>824.0</ele><time>2026-04-19T15:41:46Z</time></trkpt><trkpt lat="46.40924271341577" lon="11.392388161521296"><ele>826.3333333333334</ele><time>2026-04-19T15:41:47Z</time></trkpt><trkpt lat="46.40922031047606" lon="11.392484271835208"><ele>828.6666666666667</ele><time>2026-04-19T15:41:48Z</time></trkpt><trkpt lat="46.40919491388354" lon="11.39257196101542"><ele>831.0</ele><time>2026-04-19T15:41:49Z</time></trkpt><trkpt lat="46.40918411590378" lon="11.392701907882914"><ele>833.3333333333333</ele><time>2026-04-19T15:41:50.999Z</time></trkpt><trkpt lat="46.40924329392288" lon="11.392847885133278"><ele>835.6666666666666</ele><time>2026-04-19T15:41:52.999Z</time></trkpt><trkpt lat="46.40930597743983" lon="11.392953513683382"><ele>838.0</ele><time>2026-04-19T15:41:53.999Z</time></trkpt><trkpt lat="46.409370963521695" lon="11.393093035827205"><ele>841.8333333333333</ele><time>2026-04-19T15:41:54.999Z</time></trkpt><trkpt lat="46.40943478608033" lon="11.39322754152052"><ele>845.6666666666666</ele><time>2026-04-19T15:41:55.999Z</time></trkpt><trkpt lat="46.40948403423076" lon="11.393330739086577"><ele>849.5</ele><time>2026-04-19T15:41:56.999Z</time></trkpt><trkpt lat="46.40952186025708" lon="11.393422017542742"><ele>853.3333333333333</ele><time>2026-04-19T15:41:57.999Z</time></trkpt><trkpt lat="46.409545037563184" lon="11.393507015857743"><ele>857.1666666666666</ele><time>2026-04-19T15:41:58.999Z</time></trkpt><trkpt lat="46.409616243924525" lon="11.393634792240217"><ele>861.0</ele><time>2026-04-19T15:42:00.999Z</time></trkpt><trkpt lat="46.40970616979342" lon="11.393754522501126"><ele>860.5999999999999</ele><time>2026-04-19T15:42:02.999Z</time></trkpt><trkpt lat="46.4097979279704" lon="11.393835993388992"><ele>860.1999999999999</ele><time>2026-04-19T15:42:04.999Z</time></trkpt><trkpt lat="46.409894063826606" lon="11.393850638804688"><ele>859.8000000000001</ele><time>2026-04-19T15:42:06.999Z</time></trkpt><trkpt lat="46.40996611911641" lon="11.393839779961288"><ele>859.4000000000001</ele><time>2026-04-19T15:42:07.999Z</time></trkpt><trkpt lat="46.41005462559368" lon="11.393821042509009"><ele>859.0</ele><time>2026-04-19T15:42:08.999Z</time></trkpt><trkpt lat="46.41015809385585" lon="11.393854181708326"><ele>859.0</ele><time>2026-04-19T15:42:10.999Z</time></trkpt><trkpt lat="46.41024164050465" lon="11.393963758445118"><ele>859.0000000000001</ele><time>2026-04-19T15:42:12.999Z</time></trkpt><trkpt lat="46.41027134094061" lon="11.394051883305718"><ele>859.0000000000001</ele><time>2026-04-19T15:42:13.999Z</time></trkpt><trkpt lat="46.41029923609234" lon="11.394159704328056"><ele>859.0</ele><time>2026-04-19T15:42:14.999Z</time></trkpt><trkpt lat="46.41030719944326" lon="11.39429068843902"><ele>859.0</ele><time>2026-04-19T15:42:15.999Z</time></trkpt><trkpt lat="46.410311470391974" lon="11.39446581913637"><ele>858.9999999999999</ele><time>2026-04-19T15:42:16.999Z</time></trkpt><trkpt lat="46.41031416980933" lon="11.394610522287582"><ele>859.0</ele><time>2026-04-19T15:42:17.999Z</time></trkpt><trkpt lat="46.41031017077161" lon="11.394731270070722"><ele>859.0</ele><time>2026-04-19T15:42:18.999Z</time></trkpt><trkpt lat="46.41032529672211" lon="11.394884223776433"><ele>859.0</ele><time>2026-04-19T15:42:20.999Z</time></trkpt><trkpt lat="46.41033344450122" lon="11.395000598841056"><ele>858.9999999999999</ele><time>2026-04-19T15:42:49Z</time></trkpt><trkpt lat="46.410325373908094" lon="11.395094652745394"><ele>859.0</ele><time>2026-04-19T15:42:50Z</time></trkpt><trkpt lat="46.41030593873218" lon="11.395207536609139"><ele>862.2</ele><time>2026-04-19T15:42:51Z</time></trkpt><trkpt lat="46.410276958789524" lon="11.395338985580757"><ele>865.4000000000001</ele><time>2026-04-19T15:42:52Z</time></trkpt><trkpt lat="46.41024626199968" lon="11.395482852590433"><ele>868.6</ele><time>2026-04-19T15:42:53Z</time></trkpt><trkpt lat="46.41020901785876" lon="11.395648809835507"><ele>871.8</ele><time>2026-04-19T15:42:54Z</time></trkpt><trkpt lat="46.410156144037664" lon="11.395751465379847"><ele>875.0</ele><time>2026-04-19T15:42:55Z</time></trkpt><trkpt lat="46.41011263992198" lon="11.395946191561864"><ele>879.0</ele><time>2026-04-19T15:42:56Z</time></trkpt><trkpt lat="46.410074804866895" lon="11.396151178953888"><ele>883.0</ele><time>2026-04-19T15:42:57Z</time></trkpt><trkpt lat="46.41004077785223" lon="11.396304409392254"><ele>887.0</ele><time>2026-04-19T15:42:58Z</time></trkpt><trkpt lat="46.4100034039322" lon="11.396425784578861"><ele>891.0</ele><time>2026-04-19T15:42:59Z</time></trkpt><trkpt lat="46.409983821074235" lon="11.396545043095864"><ele>895.0</ele><time>2026-04-19T15:43:00Z</time></trkpt><trkpt lat="46.40992774892368" lon="11.396686528231456"><ele>895.0</ele><time>2026-04-19T15:43:01Z</time></trkpt><trkpt lat="46.40991546256881" lon="11.396845571466448"><ele>895.0</ele><time>2026-04-19T15:43:02Z</time></trkpt><trkpt lat="46.40990102910959" lon="11.397013892840015"><ele>895.0</ele><time>2026-04-19T15:43:03Z</time></trkpt><trkpt lat="46.409881870192685" lon="11.397167298953528"><ele>895.0</ele><time>2026-04-19T15:43:04Z</time></trkpt><trkpt lat="46.40984738638598" lon="11.397285465427418"><ele>895.0</ele><time>2026-04-19T15:43:05Z</time></trkpt><trkpt lat="46.40983890103149" lon="11.39740205167145"><ele>896.0</ele><time>2026-04-19T15:43:06Z</time></trkpt><trkpt lat="46.40983015697342" lon="11.397528594998725"><ele>897.0</ele><time>2026-04-19T15:43:07Z</time></trkpt><trkpt lat="46.409822882087234" lon="11.397669430965575"><ele>898.0</ele><time>2026-04-19T15:43:08Z</time></trkpt><trkpt lat="46.40980604918599" lon="11.397825698933312"><ele>899.0</ele><time>2026-04-19T15:43:09Z</time></trkpt><trkpt lat="46.40978984924812" lon="11.397962648566798"><ele>900.0</ele><time>2026-04-19T15:43:10Z</time></trkpt><trkpt lat="46.40977804177409" lon="11.398064756842324"><ele>903.2</ele><time>2026-04-19T15:43:11Z</time></trkpt><trkpt lat="46.409760694860935" lon="11.398159051766026"><ele>906.4</ele><time>2026-04-19T15:43:12Z</time></trkpt><trkpt lat="46.40974887888105" lon="11.398289697693313"><ele>909.5999999999999</ele><time>2026-04-19T15:43:13Z</time></trkpt><trkpt lat="46.409736899669404" lon="11.39842311419603"><ele>912.8</ele><time>2026-04-19T15:43:14Z</time></trkpt><trkpt lat="46.409687549454674" lon="11.39858353699363"><ele>916.0</ele><time>2026-04-19T15:43:15Z</time></trkpt><trkpt lat="46.40968234820787" lon="11.398762738894849"><ele>925.5</ele><time>2026-04-19T15:43:16Z</time></trkpt><trkpt lat="46.40962061726233" lon="11.3989632536608"><ele>935.0</ele><time>2026-04-19T15:43:17Z</time></trkpt><trkpt lat="46.40957021683589" lon="11.399132485571357"><ele>944.5</ele><time>2026-04-19T15:43:18Z</time></trkpt><trkpt lat="46.40954014530041" lon="11.399267324986235"><ele>954.0</ele><time>2026-04-19T15:43:19Z</time></trkpt><trkpt lat="46.40951823037833" lon="11.399406229955671"><ele>954.0</ele><time>2026-04-19T15:43:20Z</time></trkpt><trkpt lat="46.40949351734564" lon="11.399522236139754"><ele>954.0</ele><time>2026-04-19T15:43:21Z</time></trkpt><trkpt lat="46.40948110798391" lon="11.399636873720688"><ele>954.0</ele><time>2026-04-19T15:43:22Z</time></trkpt><trkpt lat="46.409476449969326" lon="11.399731765483724"><ele>954.0</ele><time>2026-04-19T15:43:23Z</time></trkpt><trkpt lat="46.40948426398558" lon="11.399847840810938"><ele>954.0</ele><time>2026-04-19T15:43:24Z</time></trkpt><trkpt lat="46.40949605411832" lon="11.39997535747287"><ele>954.0</ele><time>2026-04-19T15:43:25Z</time></trkpt><trkpt lat="46.409510597888996" lon="11.400069867547721"><ele>953.6666666666666</ele><time>2026-04-19T15:43:26Z</time></trkpt><trkpt lat="46.409539438136555" lon="11.400167074063283"><ele>953.3333333333333</ele><time>2026-04-19T15:43:27Z</time></trkpt><trkpt lat="46.40957228714683" lon="11.40024927942813"><ele>953.0</ele><time>2026-04-19T15:43:28Z</time></trkpt><trkpt lat="46.40961852132738" lon="11.400401885737155"><ele>952.6666666666666</ele><time>2026-04-19T15:43:30Z</time></trkpt><trkpt lat="46.40962544339446" lon="11.40053208896839"><ele>952.3333333333333</ele><time>2026-04-19T15:43:31Z</time></trkpt><trkpt lat="46.40964001763779" lon="11.400678623640362"><ele>952.0</ele><time>2026-04-19T15:43:32Z</time></trkpt><trkpt lat="46.40964378948412" lon="11.400819352107124"><ele>952.0</ele><time>2026-04-19T15:43:33Z</time></trkpt><trkpt lat="46.409633485876704" lon="11.400966395345456"><ele>952.0</ele><time>2026-04-19T15:43:34Z</time></trkpt><trkpt lat="46.40961078778619" lon="11.401128930495114"><ele>952.0</ele><time>2026-04-19T15:43:35Z</time></trkpt><trkpt lat="46.40958962162932" lon="11.40128070269035"><ele>952.0</ele><time>2026-04-19T15:43:36Z</time></trkpt><trkpt lat="46.40957240853193" lon="11.40143205938967"><ele>952.0</ele><time>2026-04-19T15:43:37Z</time></trkpt><trkpt lat="46.409583129759795" lon="11.401568480391864"><ele>951.8333333333333</ele><time>2026-04-19T15:43:38Z</time></trkpt><trkpt lat="46.40956721918521" lon="11.401705226227458"><ele>951.6666666666666</ele><time>2026-04-19T15:43:39Z</time></trkpt><trkpt lat="46.409555191343514" lon="11.401840195845516"><ele>951.5</ele><time>2026-04-19T15:43:40Z</time></trkpt><trkpt lat="46.409530060844894" lon="11.401950222586493"><ele>951.3333333333333</ele><time>2026-04-19T15:43:41Z</time></trkpt><trkpt lat="46.40951330348339" lon="11.402058670416633"><ele>951.1666666666666</ele><time>2026-04-19T15:43:42Z</time></trkpt><trkpt lat="46.40950597416647" lon="11.402153158533148"><ele>951.0</ele><time>2026-04-19T15:43:43Z</time></trkpt><trkpt lat="46.40951825281706" lon="11.402243107112719"><ele>953.1666666666666</ele><time>2026-04-19T15:43:44Z</time></trkpt><trkpt lat="46.40952721157611" lon="11.40233732050627"><ele>955.3333333333333</ele><time>2026-04-19T15:43:45Z</time></trkpt><trkpt lat="46.40954876624245" lon="11.402440189825397"><ele>957.5</ele><time>2026-04-19T15:43:46Z</time></trkpt><trkpt lat="46.409572519922804" lon="11.402580991942958"><ele>959.6666666666666</ele><time>2026-04-19T15:43:47Z</time></trkpt><trkpt lat="46.40958107192006" lon="11.402691133180541"><ele>961.8333333333333</ele><time>2026-04-19T15:43:48Z</time></trkpt><trkpt lat="46.409573678729586" lon="11.402801643785729"><ele>964.0</ele><time>2026-04-19T15:43:49Z</time></trkpt><trkpt lat="46.409550335647644" lon="11.402910417001369"><ele>963.3333333333333</ele><time>2026-04-19T15:43:50Z</time></trkpt><trkpt lat="46.409524013626495" lon="11.403037720295828"><ele>962.6666666666666</ele><time>2026-04-19T15:43:51Z</time></trkpt><trkpt lat="46.40948107373689" lon="11.40316874454388"><ele>962.0</ele><time>2026-04-19T15:43:52Z</time></trkpt><trkpt lat="46.409455638773004" lon="11.403271548007298"><ele>961.3333333333333</ele><time>2026-04-19T15:43:53Z</time></trkpt><trkpt lat="46.40941395790793" lon="11.403361624334323"><ele>960.6666666666666</ele><time>2026-04-19T15:43:54Z</time></trkpt><trkpt lat="46.409376563838656" lon="11.403457257734688"><ele>960.0</ele><time>2026-04-19T15:43:55Z</time></trkpt><trkpt lat="46.409351867408716" lon="11.403579995904856"><ele>960.0</ele><time>2026-04-19T15:43:56Z</time></trkpt><trkpt lat="46.40933549641324" lon="11.403739511032969"><ele>960.0</ele><time>2026-04-19T15:43:57Z</time></trkpt><trkpt lat="46.409316943837744" lon="11.403917006465045"><ele>960.0</ele><time>2026-04-19T15:43:58Z</time></trkpt><trkpt lat="46.409295706805764" lon="11.4040759737682"><ele>960.0</ele><time>2026-04-19T15:43:59Z</time></trkpt><trkpt lat="46.409260941362106" lon="11.40420503175589"><ele>960.0</ele><time>2026-04-19T15:44:00Z</time></trkpt><trkpt lat="46.40920608302898" lon="11.404348600669593"><ele>961.2</ele><time>2026-04-19T15:44:01Z</time></trkpt><trkpt lat="46.409158812568045" lon="11.404495185857519"><ele>962.4</ele><time>2026-04-19T15:44:02Z</time></trkpt><trkpt lat="46.409135106502674" lon="11.404619006285014"><ele>963.5999999999999</ele><time>2026-04-19T15:44:03Z</time></trkpt><trkpt lat="46.40911826544969" lon="11.40473141218596"><ele>964.8</ele><time>2026-04-19T15:44:04Z</time></trkpt><trkpt lat="46.409112173426024" lon="11.404857466783048"><ele>966.0</ele><time>2026-04-19T15:44:05Z</time></trkpt><trkpt lat="46.409115429836966" lon="11.404983691312149"><ele>964.75</ele><time>2026-04-19T15:44:06Z</time></trkpt><trkpt lat="46.40912050781027" lon="11.405124094890153"><ele>963.5</ele><time>2026-04-19T15:44:07Z</time></trkpt><trkpt lat="46.409117434986875" lon="11.405263133700421"><ele>962.25</ele><time>2026-04-19T15:44:08Z</time></trkpt><trkpt lat="46.40906564396182" lon="11.40546567010894"><ele>961.0</ele><time>2026-04-19T15:44:10Z</time></trkpt><trkpt lat="46.40901428470597" lon="11.40561060348878"><ele>961.0</ele><time>2026-04-19T15:44:10.999Z</time></trkpt><trkpt lat="46.4089491242272" lon="11.405744767861528"><ele>960.9999999999999</ele><time>2026-04-19T15:44:11.999Z</time></trkpt><trkpt lat="46.40890952447512" lon="11.405844505820296"><ele>960.9999999999999</ele><time>2026-04-19T15:44:12.999Z</time></trkpt><trkpt lat="46.40889009588874" lon="11.405945627576424"><ele>961.0</ele><time>2026-04-19T15:44:13.999Z</time></trkpt><trkpt lat="46.40887377634243" lon="11.40606495016017"><ele>961.0</ele><time>2026-04-19T15:44:14.999Z</time></trkpt><trkpt lat="46.40885449810357" lon="11.406215136398822"><ele>965.0</ele><time>2026-04-19T15:44:15.999Z</time></trkpt><trkpt lat="46.40884573102003" lon="11.40637757427555"><ele>968.9999999999999</ele><time>2026-04-19T15:44:16.999Z</time></trkpt><trkpt lat="46.408837656421696" lon="11.406521601598246"><ele>972.9999999999999</ele><time>2026-04-19T15:44:17.999Z</time></trkpt><trkpt lat="46.40882220333131" lon="11.406659782654934"><ele>977.0</ele><time>2026-04-19T15:44:18.999Z</time></trkpt><trkpt lat="46.40878546088422" lon="11.406796245707342"><ele>981.0</ele><time>2026-04-19T15:44:19.999Z</time></trkpt><trkpt lat="46.40871580558437" lon="11.40695775445921"><ele>985.75</ele><time>2026-04-19T15:44:20.998Z</time></trkpt><trkpt lat="46.40865671421007" lon="11.407130011497818"><ele>990.5</ele><time>2026-04-19T15:44:21.998Z</time></trkpt><trkpt lat="46.40859899013977" lon="11.40730930545965"><ele>995.25</ele><time>2026-04-19T15:44:22.998Z</time></trkpt><trkpt lat="46.40854468862176" lon="11.40749824734554"><ele>1000.0</ele><time>2026-04-19T15:44:23.998Z</time></trkpt><trkpt lat="46.408490039409685" lon="11.407665104547522"><ele>1000.0</ele><time>2026-04-19T15:44:24.998Z</time></trkpt><trkpt lat="46.4084598419368" lon="11.407796402474384"><ele>1000.0</ele><time>2026-04-19T15:44:25.998Z</time></trkpt><trkpt lat="46.4084294926625" lon="11.407923780747813"><ele>1000.0</ele><time>2026-04-19T15:44:26.998Z</time></trkpt><trkpt lat="46.40841223129812" lon="11.408071329391111"><ele>1000.0</ele><time>2026-04-19T15:44:27.998Z</time></trkpt><trkpt lat="46.40838609868501" lon="11.40823325609328"><ele>1000.0</ele><time>2026-04-19T15:44:28.998Z</time></trkpt><trkpt lat="46.40837072088675" lon="11.40840293502942"><ele>999.75</ele><time>2026-04-19T15:44:29.998Z</time></trkpt><trkpt lat="46.40836446758048" lon="11.40858761863031"><ele>999.5</ele><time>2026-04-19T15:44:30.998Z</time></trkpt><trkpt lat="46.408355085267246" lon="11.408763632097537"><ele>999.25</ele><time>2026-04-19T15:44:31.998Z</time></trkpt><trkpt lat="46.40834302247541" lon="11.408932011923126"><ele>999.0</ele><time>2026-04-19T15:44:32.998Z</time></trkpt><trkpt lat="46.408324932772345" lon="11.409076172652167"><ele>999.0</ele><time>2026-04-19T15:44:33.998Z</time></trkpt><trkpt lat="46.408302046570725" lon="11.409207911979697"><ele>999.0</ele><time>2026-04-19T15:44:34.998Z</time></trkpt><trkpt lat="46.40828199008565" lon="11.409309258256418"><ele>999.0</ele><time>2026-04-19T15:44:35.998Z</time></trkpt><trkpt lat="46.40828131754518" lon="11.40941103390614"><ele>999.0</ele><time>2026-04-19T15:44:36.998Z</time></trkpt><trkpt lat="46.40828399884459" lon="11.409571122671286"><ele>999.0</ele><time>2026-04-19T15:44:38.998Z</time></trkpt><trkpt lat="46.40830140286462" lon="11.409674954393733"><ele>999.0</ele><time>2026-04-19T15:44:39.998Z</time></trkpt><trkpt lat="46.40831579513821" lon="11.409801924041615"><ele>999.25</ele><time>2026-04-19T15:44:40.998Z</time></trkpt><trkpt lat="46.40830936355043" lon="11.409961793098484"><ele>999.5</ele><time>2026-04-19T15:44:41.998Z</time></trkpt><trkpt lat="46.408296713999" lon="11.410132384797622"><ele>999.75</ele><time>2026-04-19T15:44:42.998Z</time></trkpt><trkpt lat="46.40828133476553" lon="11.410335584658064"><ele>1000.0</ele><time>2026-04-19T15:44:43.998Z</time></trkpt><trkpt lat="46.40824947695083" lon="11.410560960474022"><ele>1001.0</ele><time>2026-04-19T15:44:44.998Z</time></trkpt><trkpt lat="46.408207573355426" lon="11.410783589337097"><ele>1002.0</ele><time>2026-04-19T15:44:45.998Z</time></trkpt><trkpt lat="46.40816537920818" lon="11.411001723602222"><ele>1003.0</ele><time>2026-04-19T15:44:47Z</time></trkpt><trkpt lat="46.408120640976925" lon="11.411223741840312"><ele>1011.6666666666666</ele><time>2026-04-19T15:44:48Z</time></trkpt><trkpt lat="46.408076623948986" lon="11.411449999992765"><ele>1020.3333333333333</ele><time>2026-04-19T15:44:49Z</time></trkpt><trkpt lat="46.40803149276958" lon="11.411682309478493"><ele>1029.0</ele><time>2026-04-19T15:44:50Z</time></trkpt><trkpt lat="46.40799806887963" lon="11.411881079564585"><ele>1027.8</ele><time>2026-04-19T15:44:51Z</time></trkpt><trkpt lat="46.40794772144206" lon="11.41203150156379"><ele>1026.6000000000001</ele><time>2026-04-19T15:44:52Z</time></trkpt><trkpt lat="46.40792470914877" lon="11.412170473228228"><ele>1025.4</ele><time>2026-04-19T15:44:53Z</time></trkpt><trkpt lat="46.407899388924946" lon="11.412304265542236"><ele>1024.2</ele><time>2026-04-19T15:44:54Z</time></trkpt><trkpt lat="46.40788983885711" lon="11.41245061837947"><ele>1023.0</ele><time>2026-04-19T15:44:55Z</time></trkpt><trkpt lat="46.40788758707222" lon="11.412576844694296"><ele>1023.0</ele><time>2026-04-19T15:44:56Z</time></trkpt><trkpt lat="46.407878060967306" lon="11.412716763661127"><ele>1023.0</ele><time>2026-04-19T15:44:57Z</time></trkpt><trkpt lat="46.40786576677202" lon="11.412849623487576"><ele>1023.0</ele><time>2026-04-19T15:44:58Z</time></trkpt><trkpt lat="46.40784079686107" lon="11.412970101827403"><ele>1023.0</ele><time>2026-04-19T15:44:59Z</time></trkpt><trkpt lat="46.40782692255218" lon="11.413068388197031"><ele>1023.0</ele><time>2026-04-19T15:45:00Z</time></trkpt><trkpt lat="46.40783093077" lon="11.41321478532429"><ele>1023.0</ele><time>2026-04-19T15:45:02Z</time></trkpt><trkpt lat="46.407818008631345" lon="11.413307351774257"><ele>1023.4</ele><time>2026-04-19T15:45:04Z</time></trkpt><trkpt lat="46.407748425037404" lon="11.413460983087624"><ele>1023.8</ele><time>2026-04-19T15:45:06Z</time></trkpt><trkpt lat="46.40771374239451" lon="11.413554370890832"><ele>1024.2</ele><time>2026-04-19T15:45:07Z</time></trkpt><trkpt lat="46.40770057381968" lon="11.413657297694051"><ele>1024.6</ele><time>2026-04-19T15:45:08Z</time></trkpt><trkpt lat="46.40768305436658" lon="11.413792332921568"><ele>1025.0</ele><time>2026-04-19T15:45:09Z</time></trkpt><trkpt lat="46.40766111254736" lon="11.41394792075817"><ele>1025.0</ele><time>2026-04-19T15:45:10Z</time></trkpt><trkpt lat="46.40762989864659" lon="11.414106773838476"><ele>1025.0</ele><time>2026-04-19T15:45:11Z</time></trkpt><trkpt lat="46.407587226529735" lon="11.414263700332588"><ele>1025.0</ele><time>2026-04-19T15:45:12Z</time></trkpt><trkpt lat="46.40754157138814" lon="11.414410891653993"><ele>1025.0</ele><time>2026-04-19T15:45:13Z</time></trkpt><trkpt lat="46.40750580317401" lon="11.414545976410714"><ele>1025.0</ele><time>2026-04-19T15:45:14Z</time></trkpt><trkpt lat="46.40747791151134" lon="11.41466169508326"><ele>1026.5</ele><time>2026-04-19T15:45:15Z</time></trkpt><trkpt lat="46.407464504632976" lon="11.414782874925177"><ele>1028.0</ele><time>2026-04-19T15:45:16Z</time></trkpt><trkpt lat="46.40744851947859" lon="11.414917728393668"><ele>1029.5</ele><time>2026-04-19T15:45:17Z</time></trkpt><trkpt lat="46.40744124221872" lon="11.415037483135853"><ele>1031.0</ele><time>2026-04-19T15:45:17.999Z</time></trkpt><trkpt lat="46.40742081922269" lon="11.41512391554595"><ele>1032.5</ele><time>2026-04-19T15:45:18.999Z</time></trkpt><trkpt lat="46.40738276865402" lon="11.415228630008944"><ele>1034.0</ele><time>2026-04-19T15:45:20.999Z</time></trkpt><trkpt lat="46.407339168705164" lon="11.41530601317806"><ele>1034.0</ele><time>2026-04-19T15:45:22.999Z</time></trkpt><trkpt lat="46.40739432434404" lon="11.415223169445538"><ele>1034.0</ele><time>2026-04-19T15:45:33.999Z</time></trkpt><trkpt lat="46.40741907972701" lon="11.415059682452227"><ele>1034.0</ele><time>2026-04-19T15:45:35.999Z</time></trkpt><trkpt lat="46.407442054939644" lon="11.414879518275086"><ele>1034.0</ele><time>2026-04-19T15:45:37.999Z</time></trkpt><trkpt lat="46.40746201238336" lon="11.414704900450237"><ele>1034.0</ele><time>2026-04-19T15:45:39.999Z</time></trkpt><trkpt lat="46.40748122119562" lon="11.414554435938793"><ele>1032.2</ele><time>2026-04-19T15:45:41.999Z</time></trkpt><trkpt lat="46.40751580063813" lon="11.414386604258079"><ele>1030.4</ele><time>2026-04-19T15:45:43.999Z</time></trkpt><trkpt lat="46.40756847029796" lon="11.414239667526582"><ele>1028.6</ele><time>2026-04-19T15:45:45.999Z</time></trkpt><trkpt lat="46.40761145585326" lon="11.414116303594572"><ele>1026.8</ele><time>2026-04-19T15:45:47.999Z</time></trkpt><trkpt lat="46.40762812347725" lon="11.413996350303732"><ele>1025.0</ele><time>2026-04-19T15:45:49.999Z</time></trkpt><trkpt lat="46.40765641780073" lon="11.4138904742734"><ele>1023.0000000000001</ele><time>2026-04-19T15:45:51.999Z</time></trkpt><trkpt lat="46.40767295950866" lon="11.413770278613901"><ele>1021.0</ele><time>2026-04-19T15:45:53.999Z</time></trkpt><trkpt lat="46.4076852676949" lon="11.413662853887269"><ele>1019.0</ele><time>2026-04-19T15:45:55.999Z</time></trkpt><trkpt lat="46.407697611585306" lon="11.413542543142096"><ele>1017.0</ele><time>2026-04-19T15:45:57.999Z</time></trkpt><trkpt lat="46.407736791953305" lon="11.413450535161829"><ele>1015.0000000000001</ele><time>2026-04-19T15:45:59.999Z</time></trkpt><trkpt lat="46.40775940915234" lon="11.41333995058573"><ele>1013.0</ele><time>2026-04-19T15:46:01.999Z</time></trkpt><trkpt lat="46.40780058425513" lon="11.413245834507412"><ele>1013.0000000000001</ele><time>2026-04-19T15:46:03.999Z</time></trkpt><trkpt lat="46.40781805944818" lon="11.413130503126846"><ele>1013.0</ele><time>2026-04-19T15:46:05.999Z</time></trkpt><trkpt lat="46.40782231093182" lon="11.413023730732226"><ele>1013.0</ele><time>2026-04-19T15:46:07.999Z</time></trkpt><trkpt lat="46.40782926107548" lon="11.412924210701679"><ele>1013.0</ele><time>2026-04-19T15:46:09.999Z</time></trkpt><trkpt lat="46.407861463620655" lon="11.412820994053142"><ele>1013.0000000000001</ele><time>2026-04-19T15:46:11.999Z</time></trkpt><trkpt lat="46.40787983691298" lon="11.412721326470923"><ele>1013.0</ele><time>2026-04-19T15:46:13.999Z</time></trkpt><trkpt lat="46.40789788394065" lon="11.412611079251281"><ele>1015.0</ele><time>2026-04-19T15:46:15.999Z</time></trkpt><trkpt lat="46.4078941626746" lon="11.412516661383982"><ele>1017.0</ele><time>2026-04-19T15:46:17.999Z</time></trkpt><trkpt lat="46.40789646384257" lon="11.41237567696756"><ele>1019.0</ele><time>2026-04-19T15:46:19.999Z</time></trkpt><trkpt lat="46.40792065718457" lon="11.412226832447537"><ele>1021.0</ele><time>2026-04-19T15:46:21.999Z</time></trkpt><trkpt lat="46.40795027298887" lon="11.412039477576785"><ele>1023.0</ele><time>2026-04-19T15:46:23.999Z</time></trkpt><trkpt lat="46.40796882719556" lon="11.411944586395867"><ele>1024.0</ele><time>2026-04-19T15:46:24.999Z</time></trkpt><trkpt lat="46.40799357575503" lon="11.411855693846283"><ele>1025.0</ele><time>2026-04-19T15:46:25.999Z</time></trkpt><trkpt lat="46.408030765286405" lon="11.411699566195848"><ele>1026.0</ele><time>2026-04-19T15:46:27.999Z</time></trkpt><trkpt lat="46.408051747503265" lon="11.41160808985886"><ele>1027.0</ele><time>2026-04-19T15:46:28.999Z</time></trkpt><trkpt lat="46.4080739357954" lon="11.411498649740736"><ele>1028.0</ele><time>2026-04-19T15:46:29.999Z</time></trkpt><trkpt lat="46.408087056651695" lon="11.411377828385909"><ele>1029.0</ele><time>2026-04-19T15:46:30.999Z</time></trkpt><trkpt lat="46.408097538336875" lon="11.411257869309395"><ele>1024.6666666666667</ele><time>2026-04-19T15:46:31.999Z</time></trkpt><trkpt lat="46.40812420388663" lon="11.411156600369596"><ele>1020.3333333333333</ele><time>2026-04-19T15:46:32.999Z</time></trkpt><trkpt lat="46.40814757147403" lon="11.411051033796475"><ele>1016.0</ele><time>2026-04-19T15:46:33.999Z</time></trkpt><trkpt lat="46.40816470879521" lon="11.410949963068614"><ele>1011.6666666666666</ele><time>2026-04-19T15:46:34.999Z</time></trkpt><trkpt lat="46.40819548201589" lon="11.410775927471303"><ele>1007.3333333333333</ele><time>2026-04-19T15:46:36.999Z</time></trkpt><trkpt lat="46.4082167625655" lon="11.410663011934934"><ele>1003.0</ele><time>2026-04-19T15:46:37.999Z</time></trkpt><trkpt lat="46.408233231436846" lon="11.410562138326995"><ele>1002.4999999999999</ele><time>2026-04-19T15:46:38.998Z</time></trkpt><trkpt lat="46.40824420006175" lon="11.410466860120875"><ele>1002.0</ele><time>2026-04-19T15:46:39.998Z</time></trkpt><trkpt lat="46.40826905991788" lon="11.410289407553078"><ele>1001.5</ele><time>2026-04-19T15:46:41.998Z</time></trkpt><trkpt lat="46.408280937927664" lon="11.4101673672421"><ele>1001.0</ele><time>2026-04-19T15:46:42.998Z</time></trkpt><trkpt lat="46.408297734051814" lon="11.410052351279003"><ele>1000.4999999999999</ele><time>2026-04-19T15:46:43.998Z</time></trkpt><trkpt lat="46.408305442393925" lon="11.409954059418656"><ele>1000.0</ele><time>2026-04-19T15:46:44.998Z</time></trkpt><trkpt lat="46.40831688309176" lon="11.409832226624527"><ele>1000.0</ele><time>2026-04-19T15:46:46.998Z</time></trkpt><trkpt lat="46.40830212284769" lon="11.40968939121829"><ele>1000.0</ele><time>2026-04-19T15:46:48.998Z</time></trkpt><trkpt lat="46.40826641881393" lon="11.409538086148704"><ele>1000.0</ele><time>2026-04-19T15:46:50.998Z</time></trkpt><trkpt lat="46.40826453764515" lon="11.409378922932333"><ele>1000.0</ele><time>2026-04-19T15:46:53Z</time></trkpt><trkpt lat="46.4082873316449" lon="11.409212790588725"><ele>1000.0</ele><time>2026-04-19T15:46:55Z</time></trkpt><trkpt lat="46.408313039182275" lon="11.409048102920003"><ele>999.8</ele><time>2026-04-19T15:46:57Z</time></trkpt><trkpt lat="46.40833523992594" lon="11.408951502215455"><ele>999.6</ele><time>2026-04-19T15:46:58Z</time></trkpt><trkpt lat="46.40834446334588" lon="11.408785666695824"><ele>999.4000000000001</ele><time>2026-04-19T15:47:00Z</time></trkpt><trkpt lat="46.40835018507163" lon="11.408621423041838"><ele>999.2</ele><time>2026-04-19T15:47:02Z</time></trkpt><trkpt lat="46.40838079250343" lon="11.408470355113172"><ele>999.0</ele><time>2026-04-19T15:47:04Z</time></trkpt><trkpt lat="46.40838005672728" lon="11.408306488828279"><ele>999.1666666666666</ele><time>2026-04-19T15:47:06Z</time></trkpt><trkpt lat="46.408385399315826" lon="11.40814589933205"><ele>999.3333333333333</ele><time>2026-04-19T15:47:08Z</time></trkpt><trkpt lat="46.40839657339675" lon="11.408046855236144"><ele>999.5</ele><time>2026-04-19T15:47:09Z</time></trkpt><trkpt lat="46.40840485273941" lon="11.407952489746023"><ele>999.6666666666666</ele><time>2026-04-19T15:47:10Z</time></trkpt><trkpt lat="46.408404235928735" lon="11.407859664878247"><ele>999.8333333333333</ele><time>2026-04-19T15:47:11Z</time></trkpt><trkpt lat="46.40845179537557" lon="11.40769710087145"><ele>1000.0</ele><time>2026-04-19T15:47:13Z</time></trkpt><trkpt lat="46.40847841287713" lon="11.407611010322244"><ele>999.9999999999999</ele><time>2026-04-19T15:47:14Z</time></trkpt><trkpt lat="46.40851144142153" lon="11.407532051694897"><ele>1000.0</ele><time>2026-04-19T15:47:15Z</time></trkpt><trkpt lat="46.4085568239919" lon="11.407368484536292"><ele>1000.0</ele><time>2026-04-19T15:47:17Z</time></trkpt><trkpt lat="46.40858040759601" lon="11.40728168261522"><ele>1000.0</ele><time>2026-04-19T15:47:18Z</time></trkpt><trkpt lat="46.40862357381683" lon="11.4071235258786"><ele>999.9999999999999</ele><time>2026-04-19T15:47:20Z</time></trkpt><trkpt lat="46.408650256394395" lon="11.40703636005404"><ele>1000.0</ele><time>2026-04-19T15:47:21Z</time></trkpt><trkpt lat="46.408681679820546" lon="11.406953140289824"><ele>1000.2</ele><time>2026-04-19T15:47:22Z</time></trkpt><trkpt lat="46.40872409367376" lon="11.406853480038672"><ele>1000.4</ele><time>2026-04-19T15:47:23Z</time></trkpt><trkpt lat="46.40875835019888" lon="11.406760798632703"><ele>1000.5999999999999</ele><time>2026-04-19T15:47:24Z</time></trkpt><trkpt lat="46.40878114767031" lon="11.406674242084234"><ele>1000.8</ele><time>2026-04-19T15:47:25Z</time></trkpt><trkpt lat="46.40881397017139" lon="11.406514185256292"><ele>1001.0</ele><time>2026-04-19T15:47:27Z</time></trkpt><trkpt lat="46.408823902355756" lon="11.406323633364526"><ele>994.3333333333334</ele><time>2026-04-19T15:47:29Z</time></trkpt><trkpt lat="46.40883619291727" lon="11.40622732432084"><ele>987.6666666666667</ele><time>2026-04-19T15:47:30Z</time></trkpt><trkpt lat="46.408839721407475" lon="11.406134531860808"><ele>981.0</ele><time>2026-04-19T15:47:31Z</time></trkpt><trkpt lat="46.40884254140038" lon="11.406042045610647"><ele>974.3333333333333</ele><time>2026-04-19T15:47:32Z</time></trkpt><trkpt lat="46.408864581881964" lon="11.405887193425793"><ele>967.6666666666666</ele><time>2026-04-19T15:47:34Z</time></trkpt><trkpt lat="46.408902082651224" lon="11.405741885979973"><ele>961.0</ele><time>2026-04-19T15:47:36Z</time></trkpt><trkpt lat="46.40897078419499" lon="11.405579818130374"><ele>959.5999999999999</ele><time>2026-04-19T15:47:38Z</time></trkpt><trkpt lat="46.40899945039255" lon="11.405488981674882"><ele>958.1999999999999</ele><time>2026-04-19T15:47:39Z</time></trkpt><trkpt lat="46.40905170502803" lon="11.405338873181375"><ele>956.8000000000001</ele><time>2026-04-19T15:47:41Z</time></trkpt><trkpt lat="46.40907305053046" lon="11.405201355896692"><ele>955.4000000000001</ele><time>2026-04-19T15:47:43Z</time></trkpt><trkpt lat="46.40909245415791" lon="11.405080350973522"><ele>954.0</ele><time>2026-04-19T15:47:45Z</time></trkpt><trkpt lat="46.40909134543977" lon="11.404887782536028"><ele>954.0</ele><time>2026-04-19T15:47:47Z</time></trkpt><trkpt lat="46.4090842163573" lon="11.404702295725144"><ele>954.0000000000001</ele><time>2026-04-19T15:47:49Z</time></trkpt><trkpt lat="46.409115564885084" lon="11.404531664241535"><ele>954.0000000000001</ele><time>2026-04-19T15:47:50.999Z</time></trkpt><trkpt lat="46.40914540165562" lon="11.404434352410407"><ele>954.0</ele><time>2026-04-19T15:47:51.999Z</time></trkpt><trkpt lat="46.409195383426116" lon="11.40429686643685"><ele>954.0</ele><time>2026-04-19T15:47:52.999Z</time></trkpt><trkpt lat="46.40924116862052" lon="11.40416462312896"><ele>955.0</ele><time>2026-04-19T15:47:53.999Z</time></trkpt><trkpt lat="46.409263762944995" lon="11.404052710252643"><ele>956.0</ele><time>2026-04-19T15:47:54.999Z</time></trkpt><trkpt lat="46.409279749098324" lon="11.40394386422851"><ele>957.0</ele><time>2026-04-19T15:47:55.999Z</time></trkpt><trkpt lat="46.40930291625836" lon="11.403841573442064"><ele>958.0</ele><time>2026-04-19T15:47:56.999Z</time></trkpt><trkpt lat="46.409312968415" lon="11.403731391728654"><ele>959.0</ele><time>2026-04-19T15:47:57.999Z</time></trkpt><trkpt lat="46.40932938508881" lon="11.403617035113573"><ele>960.0</ele><time>2026-04-19T15:47:58.999Z</time></trkpt><trkpt lat="46.40934051620414" lon="11.403504709663268"><ele>960.0</ele><time>2026-04-19T15:47:59.999Z</time></trkpt><trkpt lat="46.409362156426674" lon="11.403412964439276"><ele>960.0</ele><time>2026-04-19T15:48:00.999Z</time></trkpt><trkpt lat="46.40939321605889" lon="11.403315470349519"><ele>960.0</ele><time>2026-04-19T15:48:01.999Z</time></trkpt><trkpt lat="46.40943990133074" lon="11.403193128252235"><ele>960.0</ele><time>2026-04-19T15:48:02.999Z</time></trkpt><trkpt lat="46.40947524216138" lon="11.403069350058432"><ele>960.0</ele><time>2026-04-19T15:48:03.999Z</time></trkpt><trkpt lat="46.409522391833846" lon="11.402907909757067"><ele>960.8</ele><time>2026-04-19T15:48:05.999Z</time></trkpt><trkpt lat="46.409539966037826" lon="11.402817182914509"><ele>961.6</ele><time>2026-04-19T15:48:06.999Z</time></trkpt><trkpt lat="46.40954700408328" lon="11.402662156048299"><ele>962.4000000000001</ele><time>2026-04-19T15:48:08.999Z</time></trkpt><trkpt lat="46.40952751552177" lon="11.402494500989732"><ele>963.2</ele><time>2026-04-19T15:48:10.999Z</time></trkpt><trkpt lat="46.40950601906299" lon="11.402322394347017"><ele>964.0</ele><time>2026-04-19T15:48:12.999Z</time></trkpt><trkpt lat="46.40948887418148" lon="11.402164424902235"><ele>961.4000000000001</ele><time>2026-04-19T15:48:14.999Z</time></trkpt><trkpt lat="46.409484553654586" lon="11.40203864001503"><ele>958.8000000000001</ele><time>2026-04-19T15:48:16.999Z</time></trkpt><trkpt lat="46.40952148334243" lon="11.40189848622789"><ele>956.1999999999999</ele><time>2026-04-19T15:48:18.999Z</time></trkpt><trkpt lat="46.40955299897609" lon="11.401728403170527"><ele>953.5999999999999</ele><time>2026-04-19T15:48:20.999Z</time></trkpt><trkpt lat="46.40957845162148" lon="11.401554609881044"><ele>951.0</ele><time>2026-04-19T15:48:22.999Z</time></trkpt><trkpt lat="46.40957591672079" lon="11.401382768222408"><ele>951.1428571428571</ele><time>2026-04-19T15:48:24.999Z</time></trkpt><trkpt lat="46.40957540898701" lon="11.401285538686238"><ele>951.2857142857143</ele><time>2026-04-19T15:48:25.999Z</time></trkpt><trkpt lat="46.40958330417521" lon="11.401187374958504"><ele>951.4285714285714</ele><time>2026-04-19T15:48:26.999Z</time></trkpt><trkpt lat="46.40959521794621" lon="11.401080392637905"><ele>951.5714285714286</ele><time>2026-04-19T15:48:27.999Z</time></trkpt><trkpt lat="46.40961354487182" lon="11.400964220040084"><ele>951.7142857142858</ele><time>2026-04-19T15:48:28.999Z</time></trkpt><trkpt lat="46.409620875972855" lon="11.4008588768103"><ele>951.8571428571429</ele><time>2026-04-19T15:48:29.999Z</time></trkpt><trkpt lat="46.40962313728005" lon="11.400764561002635"><ele>952.0</ele><time>2026-04-19T15:48:30.999Z</time></trkpt><trkpt lat="46.40961682573509" lon="11.400671214768407"><ele>951.9999999999999</ele><time>2026-04-19T15:48:31.999Z</time></trkpt><trkpt lat="46.40962005214409" lon="11.400579295326464"><ele>952.0</ele><time>2026-04-19T15:48:32.999Z</time></trkpt><trkpt lat="46.40960756304088" lon="11.4004745972053"><ele>952.0</ele><time>2026-04-19T15:48:33.999Z</time></trkpt><trkpt lat="46.40959016256656" lon="11.400378010557736"><ele>952.0</ele><time>2026-04-19T15:48:34.999Z</time></trkpt><trkpt lat="46.4095664236083" lon="11.400242323949145"><ele>951.9999999999999</ele><time>2026-04-19T15:48:36.999Z</time></trkpt><trkpt lat="46.409521740107415" lon="11.40011940231675"><ele>952.0</ele><time>2026-04-19T15:48:39.999Z</time></trkpt><trkpt lat="46.40949761803707" lon="11.399998312426787"><ele>951.6666666666666</ele><time>2026-04-19T15:48:42.999Z</time></trkpt><trkpt lat="46.40948701273574" lon="11.399889350395538"><ele>951.3333333333333</ele><time>2026-04-19T15:48:44.999Z</time></trkpt><trkpt lat="46.40947648570963" lon="11.399783566124789"><ele>951.0</ele><time>2026-04-19T15:48:46.999Z</time></trkpt><trkpt lat="46.409487403805066" lon="11.399670894366206"><ele>950.6666666666667</ele><time>2026-04-19T15:48:48.999Z</time></trkpt><trkpt lat="46.409485352436256" lon="11.399549611750736"><ele>950.3333333333334</ele><time>2026-04-19T15:48:50.999Z</time></trkpt><trkpt lat="46.40950163817118" lon="11.399418313367729"><ele>950.0</ele><time>2026-04-19T15:48:52.999Z</time></trkpt><trkpt lat="46.40954640696894" lon="11.399233125104507"><ele>950.6666666666667</ele><time>2026-04-19T15:48:54.999Z</time></trkpt><trkpt lat="46.40956952396833" lon="11.39914021340679"><ele>951.3333333333334</ele><time>2026-04-19T15:48:55.999Z</time></trkpt><trkpt lat="46.40959180803711" lon="11.399046963162489"><ele>952.0</ele><time>2026-04-19T15:48:56.999Z</time></trkpt><trkpt lat="46.40961404867423" lon="11.398943151897715"><ele>952.6666666666667</ele><time>2026-04-19T15:48:57.999Z</time></trkpt><trkpt lat="46.40964057407423" lon="11.398831029956025"><ele>953.3333333333334</ele><time>2026-04-19T15:48:59Z</time></trkpt><trkpt lat="46.40967388336761" lon="11.398710001391333"><ele>954.0</ele><time>2026-04-19T15:49:00Z</time></trkpt><trkpt lat="46.40970383819533" lon="11.39858610238436"><ele>948.5714285714286</ele><time>2026-04-19T15:49:01Z</time></trkpt><trkpt lat="46.40971391238989" lon="11.398473055800038"><ele>943.1428571428571</ele><time>2026-04-19T15:49:02Z</time></trkpt><trkpt lat="46.40973101760388" lon="11.398371397543917"><ele>937.7142857142857</ele><time>2026-04-19T15:49:03Z</time></trkpt><trkpt lat="46.40974708362602" lon="11.398269858322454"><ele>932.2857142857142</ele><time>2026-04-19T15:49:04Z</time></trkpt><trkpt lat="46.40975627935472" lon="11.398178182689339"><ele>926.8571428571429</ele><time>2026-04-19T15:49:05Z</time></trkpt><trkpt lat="46.409778390130434" lon="11.398068771526628"><ele>921.4285714285713</ele><time>2026-04-19T15:49:06Z</time></trkpt><trkpt lat="46.409771014361716" lon="11.397959068159333"><ele>916.0</ele><time>2026-04-19T15:49:07Z</time></trkpt><trkpt lat="46.40978570799272" lon="11.397782455136367"><ele>912.8</ele><time>2026-04-19T15:49:09Z</time></trkpt><trkpt lat="46.409798366969696" lon="11.39769024386979"><ele>909.5999999999999</ele><time>2026-04-19T15:49:10Z</time></trkpt><trkpt lat="46.40980563128009" lon="11.397520425421288"><ele>906.4</ele><time>2026-04-19T15:49:12Z</time></trkpt><trkpt lat="46.40982796193758" lon="11.397347621290862"><ele>903.2</ele><time>2026-04-19T15:49:14Z</time></trkpt><trkpt lat="46.409842221815374" lon="11.397252145962723"><ele>900.0</ele><time>2026-04-19T15:49:15Z</time></trkpt><trkpt lat="46.409869644311165" lon="11.397053676583193"><ele>899.1666666666666</ele><time>2026-04-19T15:49:17Z</time></trkpt><trkpt lat="46.40989344177562" lon="11.396908200056929"><ele>898.3333333333333</ele><time>2026-04-19T15:49:18Z</time></trkpt><trkpt lat="46.4099093605605" lon="11.396760417412372"><ele>897.5</ele><time>2026-04-19T15:49:19Z</time></trkpt><trkpt lat="46.40993440321706" lon="11.396637553479033"><ele>896.6666666666666</ele><time>2026-04-19T15:49:20Z</time></trkpt><trkpt lat="46.409957009746606" lon="11.396528394906692"><ele>895.8333333333333</ele><time>2026-04-19T15:49:21Z</time></trkpt><trkpt lat="46.40997373246355" lon="11.39642505637923"><ele>895.0</ele><time>2026-04-19T15:49:22Z</time></trkpt><trkpt lat="46.410007422769006" lon="11.396319444893031"><ele>897.0</ele><time>2026-04-19T15:49:23Z</time></trkpt><trkpt lat="46.41005597538308" lon="11.396165668428303"><ele>899.0</ele><time>2026-04-19T15:49:24Z</time></trkpt><trkpt lat="46.41008780196041" lon="11.396023472001284"><ele>901.0</ele><time>2026-04-19T15:49:25Z</time></trkpt><trkpt lat="46.41011290660432" lon="11.395877148547955"><ele>903.0</ele><time>2026-04-19T15:49:26Z</time></trkpt><trkpt lat="46.41013286850868" lon="11.395760135241359"><ele>905.0</ele><time>2026-04-19T15:49:27Z</time></trkpt><trkpt lat="46.41016168215678" lon="11.39563822366023"><ele>905.0000000000001</ele><time>2026-04-19T15:49:28Z</time></trkpt><trkpt lat="46.410187278282464" lon="11.395527584837081"><ele>905.0</ele><time>2026-04-19T15:49:29Z</time></trkpt><trkpt lat="46.41022265558335" lon="11.395432293309968"><ele>905.0</ele><time>2026-04-19T15:49:30Z</time></trkpt><trkpt lat="46.41025181401373" lon="11.395343496486435"><ele>905.0</ele><time>2026-04-19T15:49:31Z</time></trkpt><trkpt lat="46.41027386817528" lon="11.39523195290797"><ele>905.0000000000001</ele><time>2026-04-19T15:49:32Z</time></trkpt><trkpt lat="46.410292657020854" lon="11.395116487462246"><ele>905.0</ele><time>2026-04-19T15:49:33Z</time></trkpt><trkpt lat="46.410303972262554" lon="11.395016067584564"><ele>900.0000000000001</ele><time>2026-04-19T15:49:34Z</time></trkpt><trkpt lat="46.41029446216999" lon="11.394904695757164"><ele>895.0</ele><time>2026-04-19T15:49:35Z</time></trkpt><trkpt lat="46.41027081332175" lon="11.394795303318954"><ele>890.0</ele><time>2026-04-19T15:49:36Z</time></trkpt><trkpt lat="46.410280537223514" lon="11.394681868154315"><ele>885.0</ele><time>2026-04-19T15:49:37Z</time></trkpt><trkpt lat="46.410277821272174" lon="11.394580814646421"><ele>880.0000000000001</ele><time>2026-04-19T15:49:38Z</time></trkpt><trkpt lat="46.41027811317604" lon="11.394413293501879"><ele>875.0</ele><time>2026-04-19T15:49:40Z</time></trkpt><trkpt lat="46.41028167173009" lon="11.394241454640518"><ele>871.8</ele><time>2026-04-19T15:49:42Z</time></trkpt><trkpt lat="46.4102548915135" lon="11.394113273512977"><ele>868.6</ele><time>2026-04-19T15:49:44Z</time></trkpt><trkpt lat="46.410221456646205" lon="11.393983004225191"><ele>865.4000000000001</ele><time>2026-04-19T15:49:46Z</time></trkpt><trkpt lat="46.41015382990076" lon="11.393881257207887"><ele>862.2</ele><time>2026-04-19T15:49:48Z</time></trkpt><trkpt lat="46.41003565915375" lon="11.393842820872296"><ele>859.0</ele><time>2026-04-19T15:49:50Z</time></trkpt><trkpt lat="46.409961012114714" lon="11.393854137739652"><ele>858.9999999999999</ele><time>2026-04-19T15:49:51Z</time></trkpt><trkpt lat="46.40988798816372" lon="11.393845270650203"><ele>859.0</ele><time>2026-04-19T15:49:52Z</time></trkpt><trkpt lat="46.40978936272728" lon="11.393854369530231"><ele>859.0</ele><time>2026-04-19T15:49:54Z</time></trkpt><trkpt lat="46.40972483815297" lon="11.393829815211115"><ele>859.0</ele><time>2026-04-19T15:49:55Z</time></trkpt><trkpt lat="46.40966161043992" lon="11.393762000599157"><ele>858.9999999999999</ele><time>2026-04-19T15:49:56Z</time></trkpt><trkpt lat="46.40959878350613" lon="11.393695246237273"><ele>859.0</ele><time>2026-04-19T15:49:57Z</time></trkpt><trkpt lat="46.40954268408854" lon="11.393632674742138"><ele>859.3333333333333</ele><time>2026-04-19T15:49:58Z</time></trkpt><trkpt lat="46.40951396867946" lon="11.393527795343699"><ele>859.6666666666666</ele><time>2026-04-19T15:49:59Z</time></trkpt><trkpt lat="46.40947456259338" lon="11.393397281904459"><ele>860.0</ele><time>2026-04-19T15:50:00Z</time></trkpt><trkpt lat="46.409439631299556" lon="11.393292539472567"><ele>860.3333333333333</ele><time>2026-04-19T15:50:01Z</time></trkpt><trkpt lat="46.40937791920933" lon="11.393187099170504"><ele>860.6666666666666</ele><time>2026-04-19T15:50:03Z</time></trkpt><trkpt lat="46.40942406929835" lon="11.393267373587454"><ele>861.0</ele><time>2026-04-19T15:50:29.999Z</time></trkpt><trkpt lat="46.40945814826227" lon="11.393353516450128"><ele>861.0</ele><time>2026-04-19T15:50:34.999Z</time></trkpt><trkpt lat="46.409420505301256" lon="11.393260765812972"><ele>861.0</ele><time>2026-04-19T15:50:51.999Z</time></trkpt><trkpt lat="46.40939486453248" lon="11.393171627927874"><ele>861.0</ele><time>2026-04-19T15:50:58.999Z</time></trkpt><trkpt lat="46.409349140749505" lon="11.393105792519027"><ele>861.0</ele><time>2026-04-19T15:51:16.001Z</time></trkpt><trkpt lat="46.40930931446552" lon="11.393008131045567"><ele>861.0</ele><time>2026-04-19T15:51:18.001Z</time></trkpt><trkpt lat="46.40925586647896" lon="11.39291677987741"><ele>861.0</ele><time>2026-04-19T15:51:20Z</time></trkpt><trkpt lat="46.40922894955459" lon="11.392825895391198"><ele>861.0</ele><time>2026-04-19T15:51:22Z</time></trkpt><trkpt lat="46.40920004601557" lon="11.392723802462198"><ele>857.1666666666666</ele><time>2026-04-19T15:51:25Z</time></trkpt><trkpt lat="46.40919827947883" lon="11.39262116629547"><ele>853.3333333333333</ele><time>2026-04-19T15:51:27Z</time></trkpt><trkpt lat="46.409232543031436" lon="11.392511698108471"><ele>849.5</ele><time>2026-04-19T15:51:29Z</time></trkpt><trkpt lat="46.40928262711603" lon="11.392373705551432"><ele>845.6666666666666</ele><time>2026-04-19T15:51:30.999Z</time></trkpt><trkpt lat="46.40931597931327" lon="11.392245888545531"><ele>841.8333333333333</ele><time>2026-04-19T15:51:32.999Z</time></trkpt><trkpt lat="46.409335633143726" lon="11.392113239324697"><ele>838.0</ele><time>2026-04-19T15:51:34.999Z</time></trkpt><trkpt lat="46.40937941529818" lon="11.391997680488187"><ele>835.2</ele><time>2026-04-19T15:51:36.999Z</time></trkpt><trkpt lat="46.40940685229046" lon="11.39185198033405"><ele>832.4</ele><time>2026-04-19T15:51:38.999Z</time></trkpt><trkpt lat="46.409433174210875" lon="11.391740503132901"><ele>829.6</ele><time>2026-04-19T15:51:40.999Z</time></trkpt><trkpt lat="46.409443364639976" lon="11.39163123214146"><ele>826.8000000000001</ele><time>2026-04-19T15:51:42.999Z</time></trkpt><trkpt lat="46.40945575546677" lon="11.391498326115068"><ele>824.0</ele><time>2026-04-19T15:51:45.999Z</time></trkpt><trkpt lat="46.40944850738626" lon="11.391353609308497"><ele>822.4000000000001</ele><time>2026-04-19T15:51:47.999Z</time></trkpt><trkpt lat="46.409430409676666" lon="11.391229403464857"><ele>820.8</ele><time>2026-04-19T15:51:48.999Z</time></trkpt><trkpt lat="46.409383854667695" lon="11.391140579815758"><ele>819.2</ele><time>2026-04-19T15:51:49.999Z</time></trkpt><trkpt lat="46.409420752035786" lon="11.391015387033924"><ele>817.5999999999999</ele><time>2026-04-19T15:51:51.999Z</time></trkpt><trkpt lat="46.4093861034175" lon="11.390861377810884"><ele>816.0</ele><time>2026-04-19T15:51:54.999Z</time></trkpt><trkpt lat="46.40934646907196" lon="11.390726945864344"><ele>816.0</ele><time>2026-04-19T15:51:56.999Z</time></trkpt><trkpt lat="46.409299157591086" lon="11.390592803168627"><ele>816.0</ele><time>2026-04-19T15:51:58.999Z</time></trkpt><trkpt lat="46.409271921003" lon="11.390461056677626"><ele>816.0</ele><time>2026-04-19T15:52:00.999Z</time></trkpt><trkpt lat="46.409283309253" lon="11.390305889400762"><ele>816.0</ele><time>2026-04-19T15:52:03.999Z</time></trkpt><trkpt lat="46.409284588316204" lon="11.390126504662396"><ele>816.0</ele><time>2026-04-19T15:52:05.999Z</time></trkpt><trkpt lat="46.40928571876977" lon="11.390023043688068"><ele>815.1999999999999</ele><time>2026-04-19T15:52:06.999Z</time></trkpt><trkpt lat="46.409281932042006" lon="11.389861151119497"><ele>814.4</ele><time>2026-04-19T15:52:08.999Z</time></trkpt><trkpt lat="46.40927969843267" lon="11.38970482744463"><ele>813.6</ele><time>2026-04-19T15:52:10.999Z</time></trkpt><trkpt lat="46.40928258534021" lon="11.389571475215376"><ele>812.8</ele><time>2026-04-19T15:52:12.999Z</time></trkpt><trkpt lat="46.40927713855048" lon="11.389456065467767"><ele>812.0</ele><time>2026-04-19T15:52:14.999Z</time></trkpt><trkpt lat="46.40926428524764" lon="11.38931940496462"><ele>811.0</ele><time>2026-04-19T15:52:16.999Z</time></trkpt><trkpt lat="46.40925961423736" lon="11.389217935892079"><ele>810.0</ele><time>2026-04-19T15:52:18.999Z</time></trkpt><trkpt lat="46.40925036842775" lon="11.389063640589157"><ele>809.0</ele><time>2026-04-19T15:52:20.999Z</time></trkpt><trkpt lat="46.409273405053156" lon="11.38896311435776"><ele>808.0</ele><time>2026-04-19T15:52:21.999Z</time></trkpt><trkpt lat="46.40930850720441" lon="11.388805958008069"><ele>807.0</ele><time>2026-04-19T15:52:23.999Z</time></trkpt><trkpt lat="46.409351057945756" lon="11.388656084721198"><ele>807.0</ele><time>2026-04-19T15:52:25.999Z</time></trkpt><trkpt lat="46.40938545427262" lon="11.388532978363468"><ele>807.0</ele><time>2026-04-19T15:52:27.999Z</time></trkpt><trkpt lat="46.409428449344915" lon="11.388404075986628"><ele>807.0</ele><time>2026-04-19T15:52:29.999Z</time></trkpt><trkpt lat="46.409494966239315" lon="11.388330426071976"><ele>807.0</ele><time>2026-04-19T15:52:31.999Z</time></trkpt><trkpt lat="46.40952200046827" lon="11.38805494957586"><ele>807.6</ele><time>2026-04-19T15:52:33.999Z</time></trkpt><trkpt lat="46.40955226230688" lon="11.387894360726255"><ele>808.2</ele><time>2026-04-19T15:52:35.999Z</time></trkpt><trkpt lat="46.40957342670178" lon="11.387746454954348"><ele>808.8</ele><time>2026-04-19T15:52:37.999Z</time></trkpt><trkpt lat="46.40956395263941" lon="11.387629433196306"><ele>809.4</ele><time>2026-04-19T15:52:39.999Z</time></trkpt><trkpt lat="46.409541328715214" lon="11.387514589834645"><ele>810.0</ele><time>2026-04-19T15:52:41.999Z</time></trkpt><trkpt lat="46.40952252264597" lon="11.38739066303879"><ele>810.0</ele><time>2026-04-19T15:52:43.998Z</time></trkpt><trkpt lat="46.40952617629192" lon="11.38728285056883"><ele>810.0</ele><time>2026-04-19T15:52:45.998Z</time></trkpt><trkpt lat="46.40957702321128" lon="11.387157828034693"><ele>810.0</ele><time>2026-04-19T15:52:47.998Z</time></trkpt><trkpt lat="46.409617480174646" lon="11.387065104815047"><ele>810.0</ele><time>2026-04-19T15:52:48.998Z</time></trkpt><trkpt lat="46.409659773833596" lon="11.386965182071275"><ele>810.0</ele><time>2026-04-19T15:52:49.998Z</time></trkpt><trkpt lat="46.409694016563876" lon="11.386861937514098"><ele>810.0</ele><time>2026-04-19T15:52:50.998Z</time></trkpt><trkpt lat="46.40974619449306" lon="11.386770604339665"><ele>803.6</ele><time>2026-04-19T15:52:51.998Z</time></trkpt><trkpt lat="46.409790223795284" lon="11.386701186091322"><ele>797.2</ele><time>2026-04-19T15:52:52.998Z</time></trkpt><trkpt lat="46.409843028432036" lon="11.386551921395952"><ele>790.8</ele><time>2026-04-19T15:52:54.998Z</time></trkpt><trkpt lat="46.40986935250288" lon="11.386351937282498"><ele>784.4</ele><time>2026-04-19T15:52:56.998Z</time></trkpt><trkpt lat="46.409880914720105" lon="11.386244246342473"><ele>778.0</ele><time>2026-04-19T15:52:57.998Z</time></trkpt><trkpt lat="46.4099318706664" lon="11.386082090079174"><ele>778.0</ele><time>2026-04-19T15:52:59.998Z</time></trkpt><trkpt lat="46.40997500348173" lon="11.385903193720663"><ele>778.0</ele><time>2026-04-19T15:53:01.998Z</time></trkpt><trkpt lat="46.40998472410918" lon="11.385789358261631"><ele>778.0</ele><time>2026-04-19T15:53:02.998Z</time></trkpt><trkpt lat="46.41000010754329" lon="11.38563224847626"><ele>778.0</ele><time>2026-04-19T15:53:03.998Z</time></trkpt><trkpt lat="46.41001203149213" lon="11.385490989304685"><ele>778.0</ele><time>2026-04-19T15:53:04.998Z</time></trkpt><trkpt lat="46.410021440533384" lon="11.385357059265235"><ele>779.3333333333333</ele><time>2026-04-19T15:53:06.998Z</time></trkpt><trkpt lat="46.410035042566115" lon="11.385224760038865"><ele>780.6666666666666</ele><time>2026-04-19T15:53:22Z</time></trkpt><trkpt lat="46.410079372151294" lon="11.38512284181047"><ele>782.0</ele><time>2026-04-19T15:53:23Z</time></trkpt><trkpt lat="46.410136165642804" lon="11.385004438431933"><ele>783.3333333333333</ele><time>2026-04-19T15:53:24Z</time></trkpt><trkpt lat="46.410170742528834" lon="11.384883452696007"><ele>784.6666666666666</ele><time>2026-04-19T15:53:25Z</time></trkpt><trkpt lat="46.41021372110823" lon="11.384800844134325"><ele>786.0</ele><time>2026-04-19T15:53:26Z</time></trkpt><trkpt lat="46.41026785759395" lon="11.384699687794647"><ele>788.6666666666666</ele><time>2026-04-19T15:53:27Z</time></trkpt><trkpt lat="46.4103395722476" lon="11.384571638916162"><ele>791.3333333333333</ele><time>2026-04-19T15:53:29Z</time></trkpt><trkpt lat="46.41039550135522" lon="11.384516933974085"><ele>794.0</ele><time>2026-04-19T15:53:30Z</time></trkpt><trkpt lat="46.4104751894315" lon="11.384473509733255"><ele>796.6666666666666</ele><time>2026-04-19T15:53:31Z</time></trkpt><trkpt lat="46.41054660078812" lon="11.384420927809188"><ele>799.3333333333333</ele><time>2026-04-19T15:53:32Z</time></trkpt><trkpt lat="46.41061300506685" lon="11.384391664499752"><ele>802.0</ele><time>2026-04-19T15:53:33Z</time></trkpt><trkpt lat="46.410642722783685" lon="11.384299705502913"><ele>790.0</ele><time>2026-04-19T15:53:34Z</time></trkpt><trkpt lat="46.410707209941684" lon="11.384162704862602"><ele>778.0</ele><time>2026-04-19T15:53:36Z</time></trkpt><trkpt lat="46.410729728252555" lon="11.384059623659077"><ele>766.0</ele><time>2026-04-19T15:53:37Z</time></trkpt><trkpt lat="46.41073752517759" lon="11.383944394074224"><ele>754.0</ele><time>2026-04-19T15:53:38Z</time></trkpt><trkpt lat="46.410749485330385" lon="11.383769456699106"><ele>742.0</ele><time>2026-04-19T15:53:39Z</time></trkpt><trkpt lat="46.41075873609549" lon="11.383635091534986"><ele>741.8333333333334</ele><time>2026-04-19T15:53:40Z</time></trkpt><trkpt lat="46.410771835892895" lon="11.383532567849246"><ele>741.6666666666667</ele><time>2026-04-19T15:53:41Z</time></trkpt><trkpt lat="46.41078989723141" lon="11.383437634301462"><ele>741.5</ele><time>2026-04-19T15:53:42Z</time></trkpt><trkpt lat="46.41085286665456" lon="11.383265293778306"><ele>741.3333333333334</ele><time>2026-04-19T15:53:44Z</time></trkpt><trkpt lat="46.41090008063113" lon="11.383189011063672"><ele>741.1666666666666</ele><time>2026-04-19T15:53:45Z</time></trkpt><trkpt lat="46.41094639556417" lon="11.383123561807624"><ele>741.0</ele><time>2026-04-19T15:53:46Z</time></trkpt><trkpt lat="46.41100208330781" lon="11.383070591062484"><ele>743.0</ele><time>2026-04-19T15:53:47Z</time></trkpt><trkpt lat="46.41113538226338" lon="11.38298003274927"><ele>745.0</ele><time>2026-04-19T15:53:49Z</time></trkpt><trkpt lat="46.411193558367195" lon="11.382926591985072"><ele>747.0</ele><time>2026-04-19T15:53:50Z</time></trkpt><trkpt lat="46.411265268241884" lon="11.382810002787517"><ele>749.0</ele><time>2026-04-19T15:53:52Z</time></trkpt><trkpt lat="46.411324963488134" lon="11.382643601234147"><ele>749.0</ele><time>2026-04-19T15:53:54Z</time></trkpt><trkpt lat="46.41135071895547" lon="11.382514207107747"><ele>749.0</ele><time>2026-04-19T15:53:54.999Z</time></trkpt><trkpt lat="46.41136417298242" lon="11.382382207411851"><ele>749.0</ele><time>2026-04-19T15:53:55.999Z</time></trkpt><trkpt lat="46.41137206717263" lon="11.382256996771305"><ele>749.0</ele><time>2026-04-19T15:53:56.999Z</time></trkpt><trkpt lat="46.41138652583558" lon="11.382142676520191"><ele>749.0</ele><time>2026-04-19T15:53:57.999Z</time></trkpt><trkpt lat="46.41142162871391" lon="11.3820432267431"><ele>749.0</ele><time>2026-04-19T15:53:58.999Z</time></trkpt><trkpt lat="46.41144762019631" lon="11.381943414803702"><ele>748.3333333333333</ele><time>2026-04-19T15:53:59.999Z</time></trkpt><trkpt lat="46.41145905387295" lon="11.381842505438037"><ele>747.6666666666666</ele><time>2026-04-19T15:54:00.999Z</time></trkpt><trkpt lat="46.41146492855961" lon="11.381715881260376"><ele>747.0</ele><time>2026-04-19T15:54:01.999Z</time></trkpt><trkpt lat="46.411472140439535" lon="11.381561480229953"><ele>746.3333333333334</ele><time>2026-04-19T15:54:02.999Z</time></trkpt><trkpt lat="46.41150026620686" lon="11.381430687316495"><ele>745.6666666666667</ele><time>2026-04-19T15:54:03.999Z</time></trkpt><trkpt lat="46.41149047177862" lon="11.381313364953792"><ele>745.0</ele><time>2026-04-19T15:54:04.999Z</time></trkpt><trkpt lat="46.41146329496992" lon="11.381123529297382"><ele>745.0</ele><time>2026-04-19T15:54:06.999Z</time></trkpt><trkpt lat="46.41144204735232" lon="11.3810044681509"><ele>745.0</ele><time>2026-04-19T15:54:07.999Z</time></trkpt><trkpt lat="46.41141561493271" lon="11.380888099794086"><ele>745.0</ele><time>2026-04-19T15:54:08.999Z</time></trkpt><trkpt lat="46.41140947858766" lon="11.38077244866885"><ele>745.0</ele><time>2026-04-19T15:54:09.999Z</time></trkpt><trkpt lat="46.41139796255757" lon="11.380662140200437"><ele>745.0</ele><time>2026-04-19T15:54:10.999Z</time></trkpt><trkpt lat="46.41139343556905" lon="11.3805498872111"><ele>745.0</ele><time>2026-04-19T15:54:11.999Z</time></trkpt><trkpt lat="46.41138095944829" lon="11.380432658605342"><ele>748.1666666666667</ele><time>2026-04-19T15:54:12.999Z</time></trkpt><trkpt lat="46.41136266293901" lon="11.380320829098341"><ele>751.3333333333334</ele><time>2026-04-19T15:54:13.999Z</time></trkpt><trkpt lat="46.411339464941165" lon="11.3801993430276"><ele>754.5</ele><time>2026-04-19T15:54:14.999Z</time></trkpt><trkpt lat="46.41132110653508" lon="11.380087574071004"><ele>757.6666666666666</ele><time>2026-04-19T15:54:15.999Z</time></trkpt><trkpt lat="46.411307907377456" lon="11.379995014791938"><ele>760.8333333333333</ele><time>2026-04-19T15:54:16.999Z</time></trkpt><trkpt lat="46.411324739657836" lon="11.379819187506108"><ele>764.0</ele><time>2026-04-19T15:54:18.999Z</time></trkpt><trkpt lat="46.411393514791676" lon="11.379636823003443"><ele>750.5</ele><time>2026-04-19T15:54:20.999Z</time></trkpt><trkpt lat="46.4114525388641" lon="11.37950576911249"><ele>737.0</ele><time>2026-04-19T15:54:21.999Z</time></trkpt><trkpt lat="46.41152385826173" lon="11.379334643840712"><ele>723.5</ele><time>2026-04-19T15:54:22.999Z</time></trkpt><trkpt lat="46.411591394580235" lon="11.379166660421408"><ele>710.0</ele><time>2026-04-19T15:54:23.999Z</time></trkpt><trkpt lat="46.41164082792367" lon="11.379022384007243"><ele>710.0</ele><time>2026-04-19T15:54:24.999Z</time></trkpt><trkpt lat="46.411670176534685" lon="11.378922182568713"><ele>710.0</ele><time>2026-04-19T15:54:25.999Z</time></trkpt><trkpt lat="46.41167062259192" lon="11.378810577760781"><ele>710.0</ele><time>2026-04-19T15:54:28.999Z</time></trkpt><trkpt lat="46.41168151308588" lon="11.378910998844416"><ele>710.0</ele><time>2026-04-19T15:54:33.999Z</time></trkpt><trkpt lat="46.41161911313149" lon="11.37889825993066"><ele>710.0</ele><time>2026-04-19T15:54:36.999Z</time></trkpt><trkpt lat="46.411554767354495" lon="11.378865785541123"><ele>710.0</ele><time>2026-04-19T15:54:37.999Z</time></trkpt><trkpt lat="46.411460948991206" lon="11.378796733923176"><ele>706.2</ele><time>2026-04-19T15:54:38.999Z</time></trkpt><trkpt lat="46.411383465555566" lon="11.378735356039032"><ele>702.4</ele><time>2026-04-19T15:54:39.999Z</time></trkpt><trkpt lat="46.41133345028944" lon="11.378647554106918"><ele>698.5999999999999</ele><time>2026-04-19T15:54:40.999Z</time></trkpt><trkpt lat="46.41130619372545" lon="11.378520916912306"><ele>694.8</ele><time>2026-04-19T15:54:41.999Z</time></trkpt><trkpt lat="46.411287779972206" lon="11.378357178813864"><ele>691.0</ele><time>2026-04-19T15:54:42.999Z</time></trkpt><trkpt lat="46.41128023296099" lon="11.378180463044474"><ele>689.1999999999999</ele><time>2026-04-19T15:54:43.999Z</time></trkpt><trkpt lat="46.411286099853406" lon="11.378009320505276"><ele>687.4</ele><time>2026-04-19T15:54:44.999Z</time></trkpt><trkpt lat="46.411301146324384" lon="11.377849378704626"><ele>685.6</ele><time>2026-04-19T15:54:45.999Z</time></trkpt><trkpt lat="46.41132585856872" lon="11.377692310472897"><ele>683.8</ele><time>2026-04-19T15:54:46.999Z</time></trkpt><trkpt lat="46.411356886146685" lon="11.377547714416561"><ele>682.0</ele><time>2026-04-19T15:54:47.999Z</time></trkpt><trkpt lat="46.41140062729529" lon="11.37741594288021"><ele>682.0</ele><time>2026-04-19T15:54:48.999Z</time></trkpt><trkpt lat="46.41145984854054" lon="11.377295015315724"><ele>682.0</ele><time>2026-04-19T15:54:49.999Z</time></trkpt><trkpt lat="46.411527781579096" lon="11.377195401991317"><ele>682.0</ele><time>2026-04-19T15:54:50.999Z</time></trkpt><trkpt lat="46.411598350995064" lon="11.37709834140296"><ele>682.0</ele><time>2026-04-19T15:54:51.999Z</time></trkpt><trkpt lat="46.411664585730705" lon="11.377006149111432"><ele>682.0</ele><time>2026-04-19T15:54:52.999Z</time></trkpt><trkpt lat="46.411723264568025" lon="11.37692940362232"><ele>680.6</ele><time>2026-04-19T15:54:53.999Z</time></trkpt><trkpt lat="46.41177239238333" lon="11.376859147248561"><ele>679.2</ele><time>2026-04-19T15:54:54.999Z</time></trkpt><trkpt lat="46.411818752919345" lon="11.37679431836171"><ele>677.8</ele><time>2026-04-19T15:54:55.999Z</time></trkpt><trkpt lat="46.41190269948944" lon="11.376619317787053"><ele>676.4</ele><time>2026-04-19T15:54:57.999Z</time></trkpt><trkpt lat="46.411957462427814" lon="11.376467904510994"><ele>675.0</ele><time>2026-04-19T15:54:58.999Z</time></trkpt><trkpt lat="46.411993724501805" lon="11.376317018403345"><ele>679.75</ele><time>2026-04-19T15:54:59.999Z</time></trkpt><trkpt lat="46.41200417913724" lon="11.376135642383723"><ele>684.5</ele><time>2026-04-19T15:55:00.999Z</time></trkpt><trkpt lat="46.4120214543674" lon="11.375956580662757"><ele>689.25</ele><time>2026-04-19T15:55:01.999Z</time></trkpt><trkpt lat="46.41206858135336" lon="11.375801809520226"><ele>694.0</ele><time>2026-04-19T15:55:02.999Z</time></trkpt><trkpt lat="46.41212690599088" lon="11.375667921029862"><ele>692.4000000000001</ele><time>2026-04-19T15:55:03.999Z</time></trkpt><trkpt lat="46.41221170829377" lon="11.375554904173374"><ele>690.8</ele><time>2026-04-19T15:55:04.999Z</time></trkpt><trkpt lat="46.41230101813158" lon="11.375462457928618"><ele>689.2</ele><time>2026-04-19T15:55:05.999Z</time></trkpt><trkpt lat="46.41238536431176" lon="11.375409910446956"><ele>687.5999999999999</ele><time>2026-04-19T15:55:06.999Z</time></trkpt><trkpt lat="46.412479552311524" lon="11.375404172694516"><ele>686.0</ele><time>2026-04-19T15:55:07.999Z</time></trkpt><trkpt lat="46.41257525292875" lon="11.375430619494692"><ele>686.0</ele><time>2026-04-19T15:55:08.999Z</time></trkpt><trkpt lat="46.41266967657185" lon="11.375455103095703"><ele>686.0</ele><time>2026-04-19T15:55:09.998Z</time></trkpt><trkpt lat="46.41274980524589" lon="11.3753919996151"><ele>686.0</ele><time>2026-04-19T15:55:10.998Z</time></trkpt><trkpt lat="46.4128463578" lon="11.375286266515408"><ele>686.0</ele><time>2026-04-19T15:55:11.998Z</time></trkpt><trkpt lat="46.41295158717613" lon="11.37515482886647"><ele>686.0</ele><time>2026-04-19T15:55:12.998Z</time></trkpt><trkpt lat="46.41304962522182" lon="11.375024102065803"><ele>676.5</ele><time>2026-04-19T15:55:13.998Z</time></trkpt><trkpt lat="46.41313362371634" lon="11.374874419638674"><ele>667.0</ele><time>2026-04-19T15:55:14.998Z</time></trkpt><trkpt lat="46.41319017554255" lon="11.374722235887555"><ele>657.5</ele><time>2026-04-19T15:55:15.998Z</time></trkpt><trkpt lat="46.41326833742041" lon="11.374572614692195"><ele>648.0</ele><time>2026-04-19T15:55:17Z</time></trkpt><trkpt lat="46.413360345052595" lon="11.374425866247364"><ele>647.0</ele><time>2026-04-19T15:55:18Z</time></trkpt><trkpt lat="46.41344930599609" lon="11.374295681651834"><ele>646.0</ele><time>2026-04-19T15:55:19Z</time></trkpt><trkpt lat="46.41352706128242" lon="11.374166728794274"><ele>645.0</ele><time>2026-04-19T15:55:20Z</time></trkpt><trkpt lat="46.413587622243135" lon="11.374009605793885"><ele>644.0</ele><time>2026-04-19T15:55:21Z</time></trkpt><trkpt lat="46.413620847956366" lon="11.373816868756014"><ele>643.6666666666666</ele><time>2026-04-19T15:55:22Z</time></trkpt><trkpt lat="46.41362718715785" lon="11.373575177296118"><ele>643.3333333333334</ele><time>2026-04-19T15:55:23Z</time></trkpt><trkpt lat="46.413619746890184" lon="11.373310801678594"><ele>643.0</ele><time>2026-04-19T15:55:24Z</time></trkpt><trkpt lat="46.41361302126052" lon="11.373085588813671"><ele>647.5</ele><time>2026-04-19T15:55:25Z</time></trkpt><trkpt lat="46.41361735000302" lon="11.372886311910714"><ele>652.0</ele><time>2026-04-19T15:55:26Z</time></trkpt><trkpt lat="46.413632875246456" lon="11.372691313908826"><ele>656.5</ele><time>2026-04-19T15:55:27Z</time></trkpt><trkpt lat="46.41366114554946" lon="11.37251334141605"><ele>661.0</ele><time>2026-04-19T15:55:28Z</time></trkpt><trkpt lat="46.4137096009494" lon="11.372345965437185"><ele>669.0</ele><time>2026-04-19T15:55:29Z</time></trkpt><trkpt lat="46.413785858513094" lon="11.372174561067576"><ele>677.0</ele><time>2026-04-19T15:55:30Z</time></trkpt><trkpt lat="46.41388123416265" lon="11.372000673989785"><ele>685.0</ele><time>2026-04-19T15:55:31Z</time></trkpt><trkpt lat="46.41397889682618" lon="11.371830749642953"><ele>693.0</ele><time>2026-04-19T15:55:32Z</time></trkpt><trkpt lat="46.41407687189866" lon="11.371687646033497"><ele>679.0</ele><time>2026-04-19T15:55:33Z</time></trkpt><trkpt lat="46.41420089178581" lon="11.371548185172324"><ele>665.0</ele><time>2026-04-19T15:55:34Z</time></trkpt><trkpt lat="46.41434494474955" lon="11.371401981717783"><ele>651.0</ele><time>2026-04-19T15:55:35Z</time></trkpt><trkpt lat="46.41449135008493" lon="11.37124420475602"><ele>651.0</ele><time>2026-04-19T15:55:36Z</time></trkpt><trkpt lat="46.41462394631586" lon="11.371091097609117"><ele>651.0</ele><time>2026-04-19T15:55:37Z</time></trkpt><trkpt lat="46.41474681352061" lon="11.370957439033134"><ele>651.0</ele><time>2026-04-19T15:55:38Z</time></trkpt><trkpt lat="46.41485370057148" lon="11.370839854333079"><ele>641.75</ele><time>2026-04-19T15:55:39Z</time></trkpt><trkpt lat="46.41495649750879" lon="11.370723134419084"><ele>632.5</ele><time>2026-04-19T15:55:40Z</time></trkpt><trkpt lat="46.41504681407392" lon="11.370593419676634"><ele>623.25</ele><time>2026-04-19T15:55:41Z</time></trkpt><trkpt lat="46.415128959938826" lon="11.370438921291052"><ele>614.0</ele><time>2026-04-19T15:55:42Z</time></trkpt><trkpt lat="46.41521091310014" lon="11.370231216582571"><ele>614.0</ele><time>2026-04-19T15:55:43Z</time></trkpt><trkpt lat="46.41528156477437" lon="11.369984152982164"><ele>614.0</ele><time>2026-04-19T15:55:44Z</time></trkpt><trkpt lat="46.415343713122155" lon="11.369764686219586"><ele>614.0</ele><time>2026-04-19T15:55:45Z</time></trkpt><trkpt lat="46.41539429917004" lon="11.369557405952513"><ele>607.0</ele><time>2026-04-19T15:55:46Z</time></trkpt><trkpt lat="46.41543361536431" lon="11.369344335731244"><ele>600.0</ele><time>2026-04-19T15:55:47Z</time></trkpt><trkpt lat="46.41547162711323" lon="11.369159933603289"><ele>593.0</ele><time>2026-04-19T15:55:48Z</time></trkpt><trkpt lat="46.415526815780204" lon="11.368989543600675"><ele>586.0</ele><time>2026-04-19T15:55:49Z</time></trkpt><trkpt lat="46.415611842690986" lon="11.36881120105333"><ele>585.75</ele><time>2026-04-19T15:55:50Z</time></trkpt><trkpt lat="46.415720309445625" lon="11.36861493003854"><ele>585.5</ele><time>2026-04-19T15:55:51Z</time></trkpt><trkpt lat="46.41581149883737" lon="11.368461493543451"><ele>585.25</ele><time>2026-04-19T15:55:51.999Z</time></trkpt><trkpt lat="46.4158929856629" lon="11.368350100386483"><ele>585.0</ele><time>2026-04-19T15:55:52.999Z</time></trkpt><trkpt lat="46.41597269439037" lon="11.368271082054012"><ele>585.0</ele><time>2026-04-19T15:55:53.999Z</time></trkpt><trkpt lat="46.41606730561688" lon="11.36821791988177"><ele>585.0</ele><time>2026-04-19T15:55:54.999Z</time></trkpt><trkpt lat="46.41618936740574" lon="11.368184172794898"><ele>585.0</ele><time>2026-04-19T15:55:55.999Z</time></trkpt><trkpt lat="46.4163115696864" lon="11.36812515940052"><ele>585.0</ele><time>2026-04-19T15:55:56.999Z</time></trkpt><trkpt lat="46.416422953624384" lon="11.368011981944854"><ele>574.3333333333334</ele><time>2026-04-19T15:55:57.999Z</time></trkpt><trkpt lat="46.41652646654283" lon="11.367853743278191"><ele>563.6666666666667</ele><time>2026-04-19T15:55:58.999Z</time></trkpt><trkpt lat="46.41660432386423" lon="11.367674587555037"><ele>553.0</ele><time>2026-04-19T15:55:59.999Z</time></trkpt><trkpt lat="46.416665281910205" lon="11.367452270323598"><ele>550.0</ele><time>2026-04-19T15:56:00.999Z</time></trkpt><trkpt lat="46.41671362228117" lon="11.367188068138054"><ele>547.0</ele><time>2026-04-19T15:56:01.999Z</time></trkpt><trkpt lat="46.41674331056995" lon="11.366967547851962"><ele>544.0</ele><time>2026-04-19T15:56:02.999Z</time></trkpt><trkpt lat="46.416770616513226" lon="11.366795519054863"><ele>544.0</ele><time>2026-04-19T15:56:03.999Z</time></trkpt><trkpt lat="46.416797837062816" lon="11.366640683261021"><ele>544.0</ele><time>2026-04-19T15:56:04.999Z</time></trkpt><trkpt lat="46.41683823784811" lon="11.366486314789968"><ele>544.0</ele><time>2026-04-19T15:56:05.999Z</time></trkpt><trkpt lat="46.4168893438327" lon="11.366351820104793"><ele>544.0</ele><time>2026-04-19T15:56:06.999Z</time></trkpt><trkpt lat="46.416938249142675" lon="11.366233448787424"><ele>544.0</ele><time>2026-04-19T15:56:07.999Z</time></trkpt><trkpt lat="46.41697048867493" lon="11.366117987957592"><ele>543.8</ele><time>2026-04-19T15:56:08.999Z</time></trkpt><trkpt lat="46.41699296224206" lon="11.365996616133328"><ele>543.5999999999999</ele><time>2026-04-19T15:56:09.999Z</time></trkpt><trkpt lat="46.41700413388486" lon="11.365875543596944"><ele>543.4</ele><time>2026-04-19T15:56:10.999Z</time></trkpt><trkpt lat="46.417021780184356" lon="11.365744400337329"><ele>543.1999999999999</ele><time>2026-04-19T15:56:11.999Z</time></trkpt><trkpt lat="46.417062406112244" lon="11.365604814100921"><ele>543.0</ele><time>2026-04-19T15:56:12.999Z</time></trkpt><trkpt lat="46.41712696390809" lon="11.365455542001836"><ele>542.0</ele><time>2026-04-19T15:56:13.999Z</time></trkpt><trkpt lat="46.41718471164205" lon="11.365309635796171"><ele>541.0</ele><time>2026-04-19T15:56:14.999Z</time></trkpt><trkpt lat="46.41723850949275" lon="11.365161176620216"><ele>540.0</ele><time>2026-04-19T15:56:15.999Z</time></trkpt><trkpt lat="46.417275880180654" lon="11.364997394777966"><ele>539.0</ele><time>2026-04-19T15:56:16.999Z</time></trkpt><trkpt lat="46.41730131163061" lon="11.364831981903995"><ele>535.6</ele><time>2026-04-19T15:56:17.999Z</time></trkpt><trkpt lat="46.41731592754132" lon="11.36467041193647"><ele>532.2</ele><time>2026-04-19T15:56:18.999Z</time></trkpt><trkpt lat="46.41732152030586" lon="11.364506740842918"><ele>528.8000000000001</ele><time>2026-04-19T15:56:19.999Z</time></trkpt><trkpt lat="46.41732598991735" lon="11.36436077296295"><ele>525.4</ele><time>2026-04-19T15:56:20.999Z</time></trkpt><trkpt lat="46.41732775222016" lon="11.364225827460869"><ele>522.0</ele><time>2026-04-19T15:56:21.999Z</time></trkpt><trkpt lat="46.417331814291295" lon="11.364106675630106"><ele>522.0</ele><time>2026-04-19T15:56:22.999Z</time></trkpt><trkpt lat="46.417333031007615" lon="11.363995588700288"><ele>522.0</ele><time>2026-04-19T15:56:23.999Z</time></trkpt><trkpt lat="46.41733644028134" lon="11.363886042294093"><ele>522.0</ele><time>2026-04-19T15:56:24.999Z</time></trkpt><trkpt lat="46.41734050603504" lon="11.363775429281795"><ele>522.0</ele><time>2026-04-19T15:56:25.999Z</time></trkpt><trkpt lat="46.41734609011646" lon="11.363656015407416"><ele>522.0</ele><time>2026-04-19T15:56:26.999Z</time></trkpt><trkpt lat="46.41735053694895" lon="11.363533474226458"><ele>522.0</ele><time>2026-04-19T15:56:27.999Z</time></trkpt><trkpt lat="46.41735806111406" lon="11.363409528127763"><ele>520.2857142857143</ele><time>2026-04-19T15:56:28.999Z</time></trkpt><trkpt lat="46.417381314077446" lon="11.363287883968248"><ele>518.5714285714286</ele><time>2026-04-19T15:56:29.999Z</time></trkpt><trkpt lat="46.41740801767859" lon="11.363185710993843"><ele>516.8571428571429</ele><time>2026-04-19T15:56:30.999Z</time></trkpt><trkpt lat="46.417437164636134" lon="11.363099521189978"><ele>515.1428571428571</ele><time>2026-04-19T15:56:31.999Z</time></trkpt><trkpt lat="46.41747387990408" lon="11.363011612080138"><ele>513.4285714285714</ele><time>2026-04-19T15:56:32.999Z</time></trkpt><trkpt lat="46.417509574450904" lon="11.362917400976118"><ele>511.7142857142857</ele><time>2026-04-19T15:56:33.999Z</time></trkpt><trkpt lat="46.41754502249322" lon="11.362828588539509"><ele>510.0</ele><time>2026-04-19T15:56:34.999Z</time></trkpt><trkpt lat="46.41757977559037" lon="11.362750116748995"><ele>509.8333333333333</ele><time>2026-04-19T15:56:35.999Z</time></trkpt><trkpt lat="46.41763395233912" lon="11.362639508109675"><ele>509.66666666666663</ele><time>2026-04-19T15:56:37.999Z</time></trkpt><trkpt lat="46.41767675840883" lon="11.362544471188805"><ele>509.5</ele><time>2026-04-19T15:56:42.999Z</time></trkpt><trkpt lat="46.4177146580234" lon="11.362461837709757"><ele>509.3333333333333</ele><time>2026-04-19T15:56:47.999Z</time></trkpt><trkpt lat="46.41774862492727" lon="11.362371944821897"><ele>509.16666666666663</ele><time>2026-04-19T15:56:51.999Z</time></trkpt><trkpt lat="46.417793387734875" lon="11.362292708819709"><ele>509.0</ele><time>2026-04-19T15:56:53.999Z</time></trkpt><trkpt lat="46.417856556427225" lon="11.362173663549239"><ele>512.0</ele><time>2026-04-19T15:56:55.999Z</time></trkpt><trkpt lat="46.41790377941278" lon="11.362054776878256"><ele>515.0</ele><time>2026-04-19T15:56:56.999Z</time></trkpt><trkpt lat="46.417947152665946" lon="11.361906116396435"><ele>518.0</ele><time>2026-04-19T15:56:57.999Z</time></trkpt><trkpt lat="46.417983693159364" lon="11.361768186118333"><ele>521.0</ele><time>2026-04-19T15:56:58.999Z</time></trkpt><trkpt lat="46.41802405486599" lon="11.361638511006289"><ele>524.0</ele><time>2026-04-19T15:56:59.999Z</time></trkpt><trkpt lat="46.418061858380725" lon="11.361536987081445"><ele>517.8333333333333</ele><time>2026-04-19T15:57:00.999Z</time></trkpt><trkpt lat="46.41810476904644" lon="11.361444566600827"><ele>511.66666666666663</ele><time>2026-04-19T15:57:01.999Z</time></trkpt><trkpt lat="46.418145218157946" lon="11.361348736991685"><ele>505.5</ele><time>2026-04-19T15:57:02.999Z</time></trkpt><trkpt lat="46.418192643039276" lon="11.361250253770065"><ele>499.33333333333337</ele><time>2026-04-19T15:57:03.999Z</time></trkpt><trkpt lat="46.418232224803866" lon="11.361146520961695"><ele>493.1666666666667</ele><time>2026-04-19T15:57:04.999Z</time></trkpt><trkpt lat="46.418274719421646" lon="11.361040765229998"><ele>487.0</ele><time>2026-04-19T15:57:05.999Z</time></trkpt><trkpt lat="46.4183188954978" lon="11.360932749278241"><ele>487.0</ele><time>2026-04-19T15:57:06.999Z</time></trkpt><trkpt lat="46.41835743004426" lon="11.360814241934746"><ele>487.00000000000006</ele><time>2026-04-19T15:57:07.999Z</time></trkpt><trkpt lat="46.41840004896843" lon="11.360697766490912"><ele>487.00000000000006</ele><time>2026-04-19T15:57:08.999Z</time></trkpt><trkpt lat="46.41842867757361" lon="11.360569155234993"><ele>487.0</ele><time>2026-04-19T15:57:09.999Z</time></trkpt><trkpt lat="46.41844542237487" lon="11.360432750473784"><ele>487.0</ele><time>2026-04-19T15:57:10.999Z</time></trkpt><trkpt lat="46.41845951769963" lon="11.360292740966216"><ele>487.0</ele><time>2026-04-19T15:57:11.999Z</time></trkpt><trkpt lat="46.4184676775576" lon="11.360146596746874"><ele>487.00000000000006</ele><time>2026-04-19T15:57:12.999Z</time></trkpt><trkpt lat="46.41846237903979" lon="11.36000235284996"><ele>487.00000000000006</ele><time>2026-04-19T15:57:13.999Z</time></trkpt><trkpt lat="46.418454528162414" lon="11.359857410304532"><ele>487.0</ele><time>2026-04-19T15:57:14.999Z</time></trkpt><trkpt lat="46.418457830077365" lon="11.3597168296196"><ele>487.0</ele><time>2026-04-19T15:57:15.999Z</time></trkpt><trkpt lat="46.41845756899396" lon="11.359574164925847"><ele>491.50000000000006</ele><time>2026-04-19T15:57:16.999Z</time></trkpt><trkpt lat="46.418461157663714" lon="11.359447501127026"><ele>496.0</ele><time>2026-04-19T15:57:17.999Z</time></trkpt><trkpt lat="46.4184801677304" lon="11.35932664461574"><ele>500.5</ele><time>2026-04-19T15:57:18.998Z</time></trkpt><trkpt lat="46.41850504951388" lon="11.359206751325853"><ele>505.0</ele><time>2026-04-19T15:57:19.998Z</time></trkpt><trkpt lat="46.418527351926805" lon="11.359075154804593"><ele>509.50000000000006</ele><time>2026-04-19T15:57:20.998Z</time></trkpt><trkpt lat="46.41855595331624" lon="11.358944512807662"><ele>514.0</ele><time>2026-04-19T15:57:21.998Z</time></trkpt><trkpt lat="46.41858945819894" lon="11.35880961262992"><ele>514.0</ele><time>2026-04-19T15:57:22.999Z</time></trkpt><trkpt lat="46.41862059763353" lon="11.358696295874024"><ele>514.0</ele><time>2026-04-19T15:57:23.999Z</time></trkpt><trkpt lat="46.41865312851498" lon="11.358573394724298"><ele>514.0</ele><time>2026-04-19T15:57:24.999Z</time></trkpt><trkpt lat="46.418686554949666" lon="11.35844928055721"><ele>514.0</ele><time>2026-04-19T15:57:25.999Z</time></trkpt><trkpt lat="46.4187211234027" lon="11.358330318671111"><ele>514.0</ele><time>2026-04-19T15:57:26.999Z</time></trkpt><trkpt lat="46.418761279154346" lon="11.358211551057389"><ele>514.0</ele><time>2026-04-19T15:57:27.999Z</time></trkpt><trkpt lat="46.4188009250891" lon="11.358097009298671"><ele>514.0</ele><time>2026-04-19T15:57:28.999Z</time></trkpt><trkpt lat="46.41883828485693" lon="11.357983507937718"><ele>514.0</ele><time>2026-04-19T15:57:29.999Z</time></trkpt><trkpt lat="46.41888291713209" lon="11.357860731662072"><ele>514.0</ele><time>2026-04-19T15:57:30.999Z</time></trkpt><trkpt lat="46.41892553273701" lon="11.357735513150113"><ele>514.0</ele><time>2026-04-19T15:57:31.999Z</time></trkpt><trkpt lat="46.41896266688739" lon="11.35761516364779"><ele>514.0</ele><time>2026-04-19T15:57:32.999Z</time></trkpt><trkpt lat="46.41900328529617" lon="11.357489393428134"><ele>500.6666666666667</ele><time>2026-04-19T15:57:33.999Z</time></trkpt><trkpt lat="46.419042291047916" lon="11.357359364941086"><ele>487.33333333333337</ele><time>2026-04-19T15:57:34.999Z</time></trkpt><trkpt lat="46.41907098423638" lon="11.35726380695119"><ele>474.0</ele><time>2026-04-19T15:57:35.999Z</time></trkpt><trkpt lat="46.41910402244186" lon="11.357142759015076"><ele>460.66666666666663</ele><time>2026-04-19T15:57:36.999Z</time></trkpt><trkpt lat="46.41912710093689" lon="11.357028116588367"><ele>447.3333333333333</ele><time>2026-04-19T15:57:37.999Z</time></trkpt><trkpt lat="46.41914932257797" lon="11.356916107961577"><ele>434.0</ele><time>2026-04-19T15:57:38.999Z</time></trkpt><trkpt lat="46.41916503041759" lon="11.356772156249251"><ele>433.99999999999994</ele><time>2026-04-19T15:57:39.999Z</time></trkpt><trkpt lat="46.419175543751685" lon="11.356637755670366"><ele>434.0</ele><time>2026-04-19T15:57:40.999Z</time></trkpt><trkpt lat="46.41918620582159" lon="11.356529114559933"><ele>434.0</ele><time>2026-04-19T15:57:41.999Z</time></trkpt><trkpt lat="46.41919414457714" lon="11.35640938357331"><ele>434.0</ele><time>2026-04-19T15:57:42.999Z</time></trkpt><trkpt lat="46.41918762966803" lon="11.35628332703851"><ele>433.99999999999994</ele><time>2026-04-19T15:57:43.999Z</time></trkpt><trkpt lat="46.419174337187265" lon="11.356160967704971"><ele>434.0</ele><time>2026-04-19T15:57:44.999Z</time></trkpt><trkpt lat="46.41915768246393" lon="11.356003943298237"><ele>432.0</ele><time>2026-04-19T15:57:45.999Z</time></trkpt><trkpt lat="46.41915070207611" lon="11.355860591064765"><ele>430.0</ele><time>2026-04-19T15:57:46.999Z</time></trkpt><trkpt lat="46.419147650635644" lon="11.355725965547231"><ele>428.0</ele><time>2026-04-19T15:57:47.999Z</time></trkpt><trkpt lat="46.419147806471635" lon="11.35558041620245"><ele>426.0</ele><time>2026-04-19T15:57:48.999Z</time></trkpt><trkpt lat="46.419150381936745" lon="11.355453206327962"><ele>424.0</ele><time>2026-04-19T15:57:49.999Z</time></trkpt><trkpt lat="46.419150428245054" lon="11.355316572762078"><ele>422.4</ele><time>2026-04-19T15:57:50.999Z</time></trkpt><trkpt lat="46.41914543480759" lon="11.355176043108647"><ele>420.79999999999995</ele><time>2026-04-19T15:57:51.999Z</time></trkpt><trkpt lat="46.41913617896809" lon="11.355031610240472"><ele>419.20000000000005</ele><time>2026-04-19T15:57:52.999Z</time></trkpt><trkpt lat="46.41912846112519" lon="11.354890090406403"><ele>417.6</ele><time>2026-04-19T15:57:53.999Z</time></trkpt><trkpt lat="46.41912127447418" lon="11.354739482181815"><ele>416.0</ele><time>2026-04-19T15:57:54.999Z</time></trkpt><trkpt lat="46.41912535188427" lon="11.35459053207888"><ele>414.49999999999994</ele><time>2026-04-19T15:57:55.999Z</time></trkpt><trkpt lat="46.41912551183764" lon="11.354454488129821"><ele>413.0</ele><time>2026-04-19T15:57:56.999Z</time></trkpt><trkpt lat="46.419127803167946" lon="11.354332780334378"><ele>411.5</ele><time>2026-04-19T15:57:57.998Z</time></trkpt><trkpt lat="46.41912843170852" lon="11.354212745025015"><ele>410.0</ele><time>2026-04-19T15:57:58.998Z</time></trkpt><trkpt lat="46.41912431120266" lon="11.354109836814958"><ele>408.49999999999994</ele><time>2026-04-19T15:57:59.998Z</time></trkpt><trkpt lat="46.41911878076839" lon="11.3539970088859"><ele>407.0</ele><time>2026-04-19T15:58:00.998Z</time></trkpt><trkpt lat="46.419108933637595" lon="11.353875236649849"><ele>406.0</ele><time>2026-04-19T15:58:01.998Z</time></trkpt><trkpt lat="46.419103936959154" lon="11.353752180175125"><ele>405.0</ele><time>2026-04-19T15:58:02.998Z</time></trkpt><trkpt lat="46.419093004945495" lon="11.353615168223053"><ele>404.0</ele><time>2026-04-19T15:58:03.998Z</time></trkpt><trkpt lat="46.41909183332404" lon="11.35346885204857"><ele>403.0</ele><time>2026-04-19T15:58:04.998Z</time></trkpt><trkpt lat="46.419100140687334" lon="11.353334137014137"><ele>402.0</ele><time>2026-04-19T15:58:05.998Z</time></trkpt><trkpt lat="46.419120235490674" lon="11.353204395393298"><ele>402.0</ele><time>2026-04-19T15:58:06.998Z</time></trkpt><trkpt lat="46.41915575488059" lon="11.353051000089142"><ele>402.0</ele><time>2026-04-19T15:58:07.998Z</time></trkpt><trkpt lat="46.419208875148335" lon="11.352866386064788"><ele>402.0</ele><time>2026-04-19T15:58:08.998Z</time></trkpt><trkpt lat="46.419277730432825" lon="11.352661830112574"><ele>402.0</ele><time>2026-04-19T15:58:09.998Z</time></trkpt><trkpt lat="46.4193526971078" lon="11.352454338006305"><ele>399.33333333333337</ele><time>2026-04-19T15:58:10.998Z</time></trkpt><trkpt lat="46.41942624953679" lon="11.352231884096575"><ele>396.6666666666667</ele><time>2026-04-19T15:58:11.998Z</time></trkpt><trkpt lat="46.41949821135094" lon="11.35199323171147"><ele>394.0</ele><time>2026-04-19T15:58:12.998Z</time></trkpt><trkpt lat="46.4195827221959" lon="11.351723304417556"><ele>391.0</ele><time>2026-04-19T15:58:13.998Z</time></trkpt><trkpt lat="46.41965467330367" lon="11.351465660869358"><ele>388.0</ele><time>2026-04-19T15:58:14.998Z</time></trkpt><trkpt lat="46.41971275759676" lon="11.351231280235067"><ele>385.0</ele><time>2026-04-19T15:58:15.998Z</time></trkpt><trkpt lat="46.41978796573404" lon="11.351019545456513"><ele>385.0</ele><time>2026-04-19T15:58:16.998Z</time></trkpt><trkpt lat="46.419862705065604" lon="11.350831434102854"><ele>385.0</ele><time>2026-04-19T15:58:17.998Z</time></trkpt><trkpt lat="46.41990861274954" lon="11.35062276309708"><ele>385.0</ele><time>2026-04-19T15:58:18.998Z</time></trkpt><trkpt lat="46.419939813681026" lon="11.350418618541305"><ele>385.0</ele><time>2026-04-19T15:58:19.998Z</time></trkpt><trkpt lat="46.41998174814927" lon="11.35026155539432"><ele>380.25</ele><time>2026-04-19T15:58:20.998Z</time></trkpt><trkpt lat="46.42006442165072" lon="11.350130792187956"><ele>375.5</ele><time>2026-04-19T15:58:21.998Z</time></trkpt><trkpt lat="46.42018275195642" lon="11.350006551934174"><ele>370.75</ele><time>2026-04-19T15:58:22.998Z</time></trkpt><trkpt lat="46.420311958748606" lon="11.349895070895768"><ele>366.0</ele><time>2026-04-19T15:58:23.998Z</time></trkpt><trkpt lat="46.42039511696934" lon="11.349769296987855"><ele>365.0</ele><time>2026-04-19T15:58:24.998Z</time></trkpt><trkpt lat="46.420451355785474" lon="11.34960417629977"><ele>364.0</ele><time>2026-04-19T15:58:25.998Z</time></trkpt><trkpt lat="46.42049470417514" lon="11.34938168436126"><ele>363.0</ele><time>2026-04-19T15:58:26.998Z</time></trkpt><trkpt lat="46.42053565587042" lon="11.349135591367018"><ele>361.0</ele><time>2026-04-19T15:58:27.998Z</time></trkpt><trkpt lat="46.42058231308357" lon="11.348923341522719"><ele>359.0</ele><time>2026-04-19T15:58:28.998Z</time></trkpt><trkpt lat="46.420643244938304" lon="11.348732449844126"><ele>357.0</ele><time>2026-04-19T15:58:29.998Z</time></trkpt><trkpt lat="46.42074004234534" lon="11.348558306693455"><ele>352.6666666666667</ele><time>2026-04-19T15:58:30.998Z</time></trkpt><trkpt lat="46.42086169127967" lon="11.348378913522293"><ele>348.33333333333337</ele><time>2026-04-19T15:58:31.998Z</time></trkpt><trkpt lat="46.42095659515434" lon="11.34818080219677"><ele>344.0</ele><time>2026-04-19T15:58:32.998Z</time></trkpt><trkpt lat="46.4210259358099" lon="11.347943787709292"><ele>344.0</ele><time>2026-04-19T15:58:33.998Z</time></trkpt><trkpt lat="46.421088073801116" lon="11.347655253109119"><ele>344.0</ele><time>2026-04-19T15:58:34.998Z</time></trkpt><trkpt lat="46.421152700182965" lon="11.347344367977234"><ele>344.0</ele><time>2026-04-19T15:58:35.998Z</time></trkpt><trkpt lat="46.421221973174674" lon="11.347060085191034"><ele>344.0</ele><time>2026-04-19T15:58:36.998Z</time></trkpt><trkpt lat="46.421296759197205" lon="11.346791628246448"><ele>344.0</ele><time>2026-04-19T15:58:37.998Z</time></trkpt><trkpt lat="46.4213760025672" lon="11.346545121508026"><ele>344.0</ele><time>2026-04-19T15:58:38.998Z</time></trkpt><trkpt lat="46.42146536901809" lon="11.346310184558988"><ele>336.33333333333337</ele><time>2026-04-19T15:58:39.998Z</time></trkpt><trkpt lat="46.42156803909752" lon="11.346080302596501"><ele>328.6666666666667</ele><time>2026-04-19T15:58:40.998Z</time></trkpt><trkpt lat="46.421689034980744" lon="11.345824727987923"><ele>321.0</ele><time>2026-04-19T15:58:41.998Z</time></trkpt><trkpt lat="46.42180482302866" lon="11.345601194031687"><ele>318.6666666666667</ele><time>2026-04-19T15:58:42.998Z</time></trkpt><trkpt lat="46.42192086534393" lon="11.345378595392484"><ele>316.33333333333337</ele><time>2026-04-19T15:58:43.998Z</time></trkpt><trkpt lat="46.42202517797328" lon="11.345189841770605"><ele>314.0</ele><time>2026-04-19T15:58:44.998Z</time></trkpt><trkpt lat="46.42212925391548" lon="11.345013416568692"><ele>315.5</ele><time>2026-04-19T15:58:45.998Z</time></trkpt><trkpt lat="46.42223437742536" lon="11.344850908382087"><ele>317.0</ele><time>2026-04-19T15:58:46.998Z</time></trkpt><trkpt lat="46.42234216951509" lon="11.344702197147317"><ele>318.5</ele><time>2026-04-19T15:58:47.998Z</time></trkpt><trkpt lat="46.42244350196196" lon="11.344550102656127"><ele>320.0</ele><time>2026-04-19T15:58:48.998Z</time></trkpt><trkpt lat="46.422541064725515" lon="11.344409524602453"><ele>316.0</ele><time>2026-04-19T15:58:49.998Z</time></trkpt><trkpt lat="46.4226398666469" lon="11.344283583912699"><ele>312.0</ele><time>2026-04-19T15:58:50.998Z</time></trkpt><trkpt lat="46.42274155745576" lon="11.344170379050187"><ele>308.0</ele><time>2026-04-19T15:58:51.998Z</time></trkpt><trkpt lat="46.42285051881769" lon="11.344069566810495"><ele>304.0</ele><time>2026-04-19T15:58:52.998Z</time></trkpt><trkpt lat="46.42295965046846" lon="11.343978539288361"><ele>301.25</ele><time>2026-04-19T15:58:53.998Z</time></trkpt><trkpt lat="46.42306304187766" lon="11.343886993685434"><ele>298.5</ele><time>2026-04-19T15:58:54.998Z</time></trkpt><trkpt lat="46.423163868786695" lon="11.343794537983296"><ele>295.75</ele><time>2026-04-19T15:58:55.998Z</time></trkpt><trkpt lat="46.42326307115379" lon="11.343700163993143"><ele>293.0</ele><time>2026-04-19T15:58:56.998Z</time></trkpt><trkpt lat="46.42336574849762" lon="11.343605509324528"><ele>293.0</ele><time>2026-04-19T15:58:57.998Z</time></trkpt><trkpt lat="46.42346960148771" lon="11.343511130620882"><ele>293.0</ele><time>2026-04-19T15:58:58.998Z</time></trkpt><trkpt lat="46.42357397870271" lon="11.343398825036818"><ele>293.0</ele><time>2026-04-19T15:58:59.998Z</time></trkpt><trkpt lat="46.42379653985765" lon="11.343110382980003"><ele>291.5</ele><time>2026-04-19T15:59:01.998Z</time></trkpt><trkpt lat="46.42389005033448" lon="11.342958961315277"><ele>290.0</ele><time>2026-04-19T15:59:02.998Z</time></trkpt><trkpt lat="46.42397913709832" lon="11.342798927974814"><ele>288.5</ele><time>2026-04-19T15:59:03.998Z</time></trkpt><trkpt lat="46.42406634602662" lon="11.342635389725507"><ele>287.0</ele><time>2026-04-19T15:59:04.998Z</time></trkpt><trkpt lat="46.424152500461666" lon="11.342458621595092"><ele>287.0</ele><time>2026-04-19T15:59:05.998Z</time></trkpt><trkpt lat="46.424239587632314" lon="11.342276083195715"><ele>287.0</ele><time>2026-04-19T15:59:06.998Z</time></trkpt><trkpt lat="46.42434981181271" lon="11.342053923266773"><ele>287.0</ele><time>2026-04-19T15:59:07.998Z</time></trkpt><trkpt lat="46.42446142800946" lon="11.341840772809359"><ele>285.0</ele><time>2026-04-19T15:59:08.998Z</time></trkpt><trkpt lat="46.424564281362265" lon="11.341640821616924"><ele>283.0</ele><time>2026-04-19T15:59:09.998Z</time></trkpt><trkpt lat="46.42466125885561" lon="11.341452079605517"><ele>281.0</ele><time>2026-04-19T15:59:10.998Z</time></trkpt><trkpt lat="46.42474825200555" lon="11.341288520585598"><ele>277.5</ele><time>2026-04-19T15:59:11.998Z</time></trkpt><trkpt lat="46.4248216295376" lon="11.341144271955404"><ele>274.0</ele><time>2026-04-19T15:59:12.998Z</time></trkpt><trkpt lat="46.424885951576094" lon="11.34101375850078"><ele>270.5</ele><time>2026-04-19T15:59:13.998Z</time></trkpt><trkpt lat="46.42495075129126" lon="11.340888866947337"><ele>267.0</ele><time>2026-04-19T15:59:14.998Z</time></trkpt><trkpt lat="46.42501948070866" lon="11.340760549988135"><ele>267.0</ele><time>2026-04-19T15:59:15.998Z</time></trkpt><trkpt lat="46.42510051251484" lon="11.340631110083127"><ele>267.0</ele><time>2026-04-19T15:59:16.998Z</time></trkpt><trkpt lat="46.4251826616836" lon="11.340516475659967"><ele>267.0</ele><time>2026-04-19T15:59:17.998Z</time></trkpt><trkpt lat="46.42526666151884" lon="11.340409525850399"><ele>267.0</ele><time>2026-04-19T15:59:18.998Z</time></trkpt><trkpt lat="46.425351764282674" lon="11.340297175674309"><ele>266.2</ele><time>2026-04-19T15:59:19.998Z</time></trkpt><trkpt lat="46.42541421719249" lon="11.340208602285536"><ele>265.4</ele><time>2026-04-19T15:59:20.998Z</time></trkpt><trkpt lat="46.42552232122681" lon="11.340198903953622"><ele>264.6</ele><time>2026-04-19T15:59:22.998Z</time></trkpt><trkpt lat="46.42557071254468" lon="11.340280386634644"><ele>263.8</ele><time>2026-04-19T15:59:23.998Z</time></trkpt><trkpt lat="46.425610009958774" lon="11.340407227689402"><ele>263.0</ele><time>2026-04-19T15:59:24.998Z</time></trkpt><trkpt lat="46.42565121260205" lon="11.340580976866939"><ele>263.0</ele><time>2026-04-19T15:59:25.998Z</time></trkpt><trkpt lat="46.42571121822576" lon="11.340798763534636"><ele>263.0</ele><time>2026-04-19T15:59:26.998Z</time></trkpt><trkpt lat="46.42577599518521" lon="11.341009314727916"><ele>263.0</ele><time>2026-04-19T15:59:27.998Z</time></trkpt><trkpt lat="46.42584125723987" lon="11.341222964325738"><ele>263.5</ele><time>2026-04-19T15:59:28.999Z</time></trkpt><trkpt lat="46.42589924995962" lon="11.34140560416451"><ele>264.0</ele><time>2026-04-19T15:59:29.999Z</time></trkpt><trkpt lat="46.42595123692892" lon="11.341570295369092"><ele>264.5</ele><time>2026-04-19T15:59:30.999Z</time></trkpt><trkpt lat="46.42600168465699" lon="11.341718112622207"><ele>265.0</ele><time>2026-04-19T15:59:31.999Z</time></trkpt><trkpt lat="46.426060992715215" lon="11.341838910877751"><ele>265.0</ele><time>2026-04-19T15:59:32.999Z</time></trkpt><trkpt lat="46.426136213749" lon="11.341921894926804"><ele>265.0</ele><time>2026-04-19T15:59:33.999Z</time></trkpt><trkpt lat="46.42622391362295" lon="11.341957883049737"><ele>265.0</ele><time>2026-04-19T15:59:34.999Z</time></trkpt><trkpt lat="46.42632033583018" lon="11.341934095697109"><ele>265.0</ele><time>2026-04-19T15:59:35.999Z</time></trkpt><trkpt lat="46.42643307334509" lon="11.341902123423296"><ele>265.0</ele><time>2026-04-19T15:59:36.999Z</time></trkpt><trkpt lat="46.426531194440614" lon="11.341928312496782"><ele>264.25</ele><time>2026-04-19T15:59:37.999Z</time></trkpt><trkpt lat="46.426603012873876" lon="11.342014925807925"><ele>263.5</ele><time>2026-04-19T15:59:38.999Z</time></trkpt><trkpt lat="46.42663638057209" lon="11.342150494461672"><ele>262.75</ele><time>2026-04-19T15:59:39.999Z</time></trkpt><trkpt lat="46.42663420522361" lon="11.34233148964337"><ele>262.0</ele><time>2026-04-19T15:59:40.999Z</time></trkpt><trkpt lat="46.426633172822264" lon="11.342545026548732"><ele>262.0</ele><time>2026-04-19T15:59:41.999Z</time></trkpt><trkpt lat="46.426664475430016" lon="11.34272466710049"><ele>262.0</ele><time>2026-04-19T15:59:42.999Z</time></trkpt><trkpt lat="46.42672685270327" lon="11.342846912558958"><ele>262.0</ele><time>2026-04-19T15:59:43.999Z</time></trkpt><trkpt lat="46.42682518991268" lon="11.34294406158464"><ele>262.0</ele><time>2026-04-19T15:59:44.999Z</time></trkpt><trkpt lat="46.42694596611615" lon="11.343007320187377"><ele>261.75</ele><time>2026-04-19T15:59:45.999Z</time></trkpt><trkpt lat="46.42707892471116" lon="11.343064554628326"><ele>261.5</ele><time>2026-04-19T15:59:46.999Z</time></trkpt><trkpt lat="46.427224755336546" lon="11.343143262066853"><ele>261.25</ele><time>2026-04-19T15:59:47.999Z</time></trkpt><trkpt lat="46.42736634347807" lon="11.343229186364095"><ele>261.0</ele><time>2026-04-19T15:59:48.999Z</time></trkpt><trkpt lat="46.42748903670259" lon="11.343306063045798"><ele>259.0</ele><time>2026-04-19T15:59:49.999Z</time></trkpt><trkpt lat="46.427603704341685" lon="11.343372934635358"><ele>257.0</ele><time>2026-04-19T15:59:50.999Z</time></trkpt><trkpt lat="46.42771364138818" lon="11.343429903279649"><ele>255.0</ele><time>2026-04-19T15:59:51.999Z</time></trkpt><trkpt lat="46.42782151608774" lon="11.343491547153157"><ele>253.0</ele><time>2026-04-19T15:59:52.999Z</time></trkpt><trkpt lat="46.427932834333326" lon="11.34355703451052"><ele>251.0</ele><time>2026-04-19T15:59:53.999Z</time></trkpt><trkpt lat="46.42804304344526" lon="11.34362399551395"><ele>249.0</ele><time>2026-04-19T15:59:54.999Z</time></trkpt><trkpt lat="46.42815875962986" lon="11.343684503878189"><ele>247.0</ele><time>2026-04-19T15:59:55.999Z</time></trkpt><trkpt lat="46.42825889280907" lon="11.343741828882184"><ele>245.0</ele><time>2026-04-19T15:59:56.999Z</time></trkpt><trkpt lat="46.42835545883319" lon="11.343803775111521"><ele>245.0</ele><time>2026-04-19T15:59:57.999Z</time></trkpt><trkpt lat="46.42844701866127" lon="11.343863525956152"><ele>245.0</ele><time>2026-04-19T15:59:58.999Z</time></trkpt><trkpt lat="46.42853250988758" lon="11.34390885570433"><ele>245.0</ele><time>2026-04-19T15:59:59.999Z</time></trkpt><trkpt lat="46.42861931978585" lon="11.343959111012543"><ele>245.0</ele><time>2026-04-19T16:00:00.999Z</time></trkpt><trkpt lat="46.42871542636159" lon="11.344020960245222"><ele>245.0</ele><time>2026-04-19T16:00:01.999Z</time></trkpt><trkpt lat="46.428847007338845" lon="11.34409773299248"><ele>244.66666666666669</ele><time>2026-04-19T16:00:02.999Z</time></trkpt><trkpt lat="46.42900521959445" lon="11.34419034040661"><ele>244.33333333333331</ele><time>2026-04-19T16:00:03.999Z</time></trkpt><trkpt lat="46.42914666509636" lon="11.344268285528189"><ele>244.0</ele><time>2026-04-19T16:00:04.999Z</time></trkpt><trkpt lat="46.42927154319788" lon="11.344343498408938"><ele>244.0</ele><time>2026-04-19T16:00:05.999Z</time></trkpt><trkpt lat="46.42938467618827" lon="11.34441440448174"><ele>243.99999999999997</ele><time>2026-04-19T16:00:06.999Z</time></trkpt><trkpt lat="46.429482545178104" lon="11.344475800955195"><ele>243.99999999999997</ele><time>2026-04-19T16:00:07.999Z</time></trkpt><trkpt lat="46.429549032224074" lon="11.344511936322235"><ele>244.0</ele><time>2026-04-19T16:00:08.999Z</time></trkpt><trkpt lat="46.42965962686136" lon="11.344536687487507"><ele>244.0</ele><time>2026-04-19T16:00:10.999Z</time></trkpt><trkpt lat="46.42968755485912" lon="11.344426471992321"><ele>244.0</ele><time>2026-04-19T16:00:17.999Z</time></trkpt><trkpt lat="46.42963860596359" lon="11.344267819827104"><ele>243.99999999999997</ele><time>2026-04-19T16:00:19.999Z</time></trkpt><trkpt lat="46.429594920430866" lon="11.344168557782693"><ele>243.99999999999997</ele><time>2026-04-19T16:00:20.999Z</time></trkpt><trkpt lat="46.4295425600645" lon="11.344061920573917"><ele>244.0</ele><time>2026-04-19T16:00:21.999Z</time></trkpt><trkpt lat="46.429489698245526" lon="11.343942856327212"><ele>244.0</ele><time>2026-04-19T16:00:22.999Z</time></trkpt><trkpt lat="46.42944253042112" lon="11.343829143440797"><ele>243.6</ele><time>2026-04-19T16:00:23.999Z</time></trkpt><trkpt lat="46.429388520569006" lon="11.343707935122534"><ele>243.2</ele><time>2026-04-19T16:00:24.999Z</time></trkpt><trkpt lat="46.429332017905956" lon="11.343578080606816"><ele>242.79999999999998</ele><time>2026-04-19T16:00:25.999Z</time></trkpt><trkpt lat="46.42928676343468" lon="11.343459688853118"><ele>242.39999999999998</ele><time>2026-04-19T16:00:26.999Z</time></trkpt><trkpt lat="46.42923932635731" lon="11.343332188507768"><ele>242.0</ele><time>2026-04-19T16:00:27.999Z</time></trkpt><trkpt lat="46.42918444893094" lon="11.343202895115871"><ele>242.0</ele><time>2026-04-19T16:00:28.999Z</time></trkpt><trkpt lat="46.42913249665582" lon="11.343073656805188"><ele>242.0</ele><time>2026-04-19T16:00:29.999Z</time></trkpt><trkpt lat="46.4290880602245" lon="11.342954113117086"><ele>242.0</ele><time>2026-04-19T16:00:30.999Z</time></trkpt><trkpt lat="46.42904901455783" lon="11.34284155104246"><ele>242.0</ele><time>2026-04-19T16:00:31.999Z</time></trkpt><trkpt lat="46.42900135492608" lon="11.342720891541733"><ele>242.0</ele><time>2026-04-19T16:00:32.999Z</time></trkpt><trkpt lat="46.42895524143153" lon="11.34260309364637"><ele>242.0</ele><time>2026-04-19T16:00:33.999Z</time></trkpt><trkpt lat="46.428909936296186" lon="11.342480854237524"><ele>242.0</ele><time>2026-04-19T16:00:34.999Z</time></trkpt><trkpt lat="46.42885577777577" lon="11.342364116292158"><ele>242.0</ele><time>2026-04-19T16:00:35.999Z</time></trkpt><trkpt lat="46.428808649967884" lon="11.342251940952874"><ele>242.0</ele><time>2026-04-19T16:00:36.999Z</time></trkpt><trkpt lat="46.42875195985748" lon="11.342127872257521"><ele>242.0</ele><time>2026-04-19T16:00:37.999Z</time></trkpt><trkpt lat="46.428695342835404" lon="11.34199562152801"><ele>243.0</ele><time>2026-04-19T16:00:38.999Z</time></trkpt><trkpt lat="46.42864904729394" lon="11.34186921502282"><ele>244.0</ele><time>2026-04-19T16:00:39.999Z</time></trkpt><trkpt lat="46.42861307399311" lon="11.341747816283156"><ele>245.0</ele><time>2026-04-19T16:00:40.999Z</time></trkpt><trkpt lat="46.42856501670715" lon="11.34161599568316"><ele>246.0</ele><time>2026-04-19T16:00:41.999Z</time></trkpt><trkpt lat="46.42851211373126" lon="11.341482442516426"><ele>247.0</ele><time>2026-04-19T16:00:42.999Z</time></trkpt><trkpt lat="46.42846032708176" lon="11.341352861791119"><ele>247.0</ele><time>2026-04-19T16:00:43.999Z</time></trkpt><trkpt lat="46.42841943383809" lon="11.34123556436692"><ele>247.0</ele><time>2026-04-19T16:00:44.999Z</time></trkpt><trkpt lat="46.42837980824291" lon="11.341112343790357"><ele>247.0</ele><time>2026-04-19T16:00:45.999Z</time></trkpt><trkpt lat="46.42834656209485" lon="11.340975816830431"><ele>247.0</ele><time>2026-04-19T16:00:46.999Z</time></trkpt><trkpt lat="46.428320672086244" lon="11.340823121943664"><ele>247.0</ele><time>2026-04-19T16:00:47.999Z</time></trkpt><trkpt lat="46.42829478675086" lon="11.340663370970434"><ele>246.75</ele><time>2026-04-19T16:00:48.999Z</time></trkpt><trkpt lat="46.428268990721314" lon="11.340507260230149"><ele>246.5</ele><time>2026-04-19T16:00:49.999Z</time></trkpt><trkpt lat="46.4282444525872" lon="11.340342929537533"><ele>246.25</ele><time>2026-04-19T16:00:50.999Z</time></trkpt><trkpt lat="46.428223133551306" lon="11.340174406691272"><ele>246.0</ele><time>2026-04-19T16:00:51.999Z</time></trkpt><trkpt lat="46.42820846181221" lon="11.340023517716759"><ele>246.0</ele><time>2026-04-19T16:00:52.999Z</time></trkpt><trkpt lat="46.428194856559195" lon="11.339888827811931"><ele>246.0</ele><time>2026-04-19T16:00:53.999Z</time></trkpt><trkpt lat="46.42818292974097" lon="11.33976971402201"><ele>246.0</ele><time>2026-04-19T16:00:54.999Z</time></trkpt><trkpt lat="46.42818083132723" lon="11.339666100275782"><ele>246.0</ele><time>2026-04-19T16:00:55.999Z</time></trkpt><trkpt lat="46.42827540157885" lon="11.339589417346307"><ele>246.0</ele><time>2026-04-19T16:00:57.999Z</time></trkpt><trkpt lat="46.42834453493635" lon="11.339639564278075"><ele>246.0</ele><time>2026-04-19T16:00:58.999Z</time></trkpt><trkpt lat="46.42842410990441" lon="11.339743612114223"><ele>246.0</ele><time>2026-04-19T16:00:59.999Z</time></trkpt><trkpt lat="46.428533562841864" lon="11.339917368050664"><ele>246.0</ele><time>2026-04-19T16:01:00.999Z</time></trkpt><trkpt lat="46.42864875341113" lon="11.340085644650213"><ele>246.0</ele><time>2026-04-19T16:01:01.999Z</time></trkpt><trkpt lat="46.428769056608864" lon="11.340214707578431"><ele>244.5</ele><time>2026-04-19T16:01:02.999Z</time></trkpt><trkpt lat="46.42888104614323" lon="11.340319188558167"><ele>243.0</ele><time>2026-04-19T16:01:03.999Z</time></trkpt><trkpt lat="46.428995415514194" lon="11.340398906709888"><ele>241.5</ele><time>2026-04-19T16:01:04.999Z</time></trkpt><trkpt lat="46.429105234763504" lon="11.340452354694223"><ele>240.0</ele><time>2026-04-19T16:01:05.999Z</time></trkpt><trkpt lat="46.42921052995736" lon="11.340486874516339"><ele>240.0</ele><time>2026-04-19T16:01:06.999Z</time></trkpt><trkpt lat="46.429314864866505" lon="11.340509340169554"><ele>240.0</ele><time>2026-04-19T16:01:07.999Z</time></trkpt><trkpt lat="46.42941917202444" lon="11.340529238424779"><ele>240.0</ele><time>2026-04-19T16:01:08.999Z</time></trkpt><trkpt lat="46.42952145749833" lon="11.340543854074802"><ele>240.0</ele><time>2026-04-19T16:01:09.999Z</time></trkpt><trkpt lat="46.42962445041126" lon="11.340563498308345"><ele>240.0</ele><time>2026-04-19T16:01:10.999Z</time></trkpt><trkpt lat="46.42971873497778" lon="11.340606922503396"><ele>239.25</ele><time>2026-04-19T16:01:11.999Z</time></trkpt><trkpt lat="46.429813747305886" lon="11.34062913735134"><ele>238.5</ele><time>2026-04-19T16:01:12.999Z</time></trkpt><trkpt lat="46.429914007687096" lon="11.340652858862066"><ele>237.75</ele><time>2026-04-19T16:01:13.998Z</time></trkpt><trkpt lat="46.430063103783155" lon="11.34068813519639"><ele>237.0</ele><time>2026-04-19T16:01:14.998Z</time></trkpt><trkpt lat="46.43021961476009" lon="11.34072503953765"><ele>237.0</ele><time>2026-04-19T16:01:15.998Z</time></trkpt><trkpt lat="46.4303471557258" lon="11.340724972741901"><ele>237.0</ele><time>2026-04-19T16:01:16.998Z</time></trkpt><trkpt lat="46.43044168781672" lon="11.340743876661453"><ele>237.0</ele><time>2026-04-19T16:01:17.998Z</time></trkpt><trkpt lat="46.43052486731868" lon="11.340751418359408"><ele>237.0</ele><time>2026-04-19T16:01:18.998Z</time></trkpt><trkpt lat="46.43062619160227" lon="11.340846596133726"><ele>237.0</ele><time>2026-04-19T16:01:20.998Z</time></trkpt><trkpt lat="46.43065283310467" lon="11.341011532774887"><ele>236.0</ele><time>2026-04-19T16:01:21.998Z</time></trkpt><trkpt lat="46.43067181734155" lon="11.341253190230415"><ele>235.0</ele><time>2026-04-19T16:01:22.998Z</time></trkpt><trkpt lat="46.43068327628364" lon="11.341491759995339"><ele>234.0</ele><time>2026-04-19T16:01:23.998Z</time></trkpt><trkpt lat="46.430707554171626" lon="11.34175516251687"><ele>234.0</ele><time>2026-04-19T16:01:24.998Z</time></trkpt><trkpt lat="46.43073091682977" lon="11.341969521773532"><ele>234.0</ele><time>2026-04-19T16:01:25.998Z</time></trkpt><trkpt lat="46.430733143074804" lon="11.34215752524233"><ele>234.0</ele><time>2026-04-19T16:01:26.998Z</time></trkpt><trkpt lat="46.430776374712025" lon="11.342297344856226"><ele>234.0</ele><time>2026-04-19T16:01:27.998Z</time></trkpt><trkpt lat="46.43079194556092" lon="11.342407797791546"><ele>234.0</ele><time>2026-04-19T16:01:28.998Z</time></trkpt><trkpt lat="46.430775670585255" lon="11.342500479597438"><ele>234.00000000000003</ele><time>2026-04-19T16:01:29.998Z</time></trkpt><trkpt lat="46.43072179414227" lon="11.34255935917062"><ele>234.0</ele><time>2026-04-19T16:01:30.998Z</time></trkpt><trkpt lat="46.43064805261319" lon="11.342545522215918"><ele>234.0</ele><time>2026-04-19T16:01:31.998Z</time></trkpt><trkpt lat="46.430586356122326" lon="11.342574057639222"><ele>234.00000000000003</ele><time>2026-04-19T16:01:32.998Z</time></trkpt><trkpt lat="46.430520357369126" lon="11.342602995745843"><ele>234.0</ele><time>2026-04-19T16:01:33.998Z</time></trkpt><trkpt lat="46.430442850247104" lon="11.342662907481644"><ele>234.0</ele><time>2026-04-19T16:01:36Z</time></trkpt><trkpt lat="46.430425066525395" lon="11.342424481186352"><ele>234.0</ele><time>2026-04-19T16:01:56Z</time></trkpt><trkpt lat="46.43040340670946" lon="11.342336852972155"><ele>233.99999999999997</ele><time>2026-04-19T16:02:01Z</time></trkpt><trkpt lat="46.430576382735225" lon="11.342481897057255"><ele>233.99999999999997</ele><time>2026-04-19T16:09:57.296Z</time></trkpt><trkpt lat="46.43056711660764" lon="11.34236744349097"><ele>234.0</ele><time>2026-04-19T16:10:34.017Z</time></trkpt><trkpt lat="46.43057256120093" lon="11.342272766464832"><ele>234.0</ele><time>2026-04-19T16:18:05.018Z</time></trkpt><trkpt lat="46.43074196718472" lon="11.342305823625123"><ele>234.0</ele><time>2026-04-19T16:18:48.008Z</time></trkpt><trkpt lat="46.430509283791984" lon="11.343049712554258"><ele>234.0</ele><time>2026-04-19T16:18:52.025Z</time></trkpt><trkpt lat="46.43041538486049" lon="11.34338044387571"><ele>234.0</ele><time>2026-04-19T16:18:54.006Z</time></trkpt><trkpt lat="46.43050270539867" lon="11.343857522176503"><ele>236.5</ele><time>2026-04-19T16:18:55.003Z</time></trkpt><trkpt lat="46.430448775714936" lon="11.344184815513863"><ele>239.0</ele><time>2026-04-19T16:18:56.003Z</time></trkpt><trkpt lat="46.430377955614" lon="11.344488602022377"><ele>238.66666666666669</ele><time>2026-04-19T16:18:57.002Z</time></trkpt><trkpt lat="46.430362896596016" lon="11.34480379536645"><ele>238.33333333333331</ele><time>2026-04-19T16:18:58.002Z</time></trkpt><trkpt lat="46.43032143497664" lon="11.345034188047132"><ele>238.0</ele><time>2026-04-19T16:18:59.002Z</time></trkpt><trkpt lat="46.43026028587059" lon="11.345281083662313"><ele>238.0</ele><time>2026-04-19T16:19:00.002Z</time></trkpt><trkpt lat="46.43019079859806" lon="11.345470124352063"><ele>238.0</ele><time>2026-04-19T16:19:01.002Z</time></trkpt><trkpt lat="46.43012518150703" lon="11.345633289304049"><ele>238.0</ele><time>2026-04-19T16:19:02.002Z</time></trkpt><trkpt lat="46.43004729196606" lon="11.345757402265578"><ele>238.0</ele><time>2026-04-19T16:19:03.001Z</time></trkpt><trkpt lat="46.429968918753985" lon="11.345861282912578"><ele>241.60000000000002</ele><time>2026-04-19T16:19:04.001Z</time></trkpt><trkpt lat="46.429875364390156" lon="11.34593810395385"><ele>245.20000000000002</ele><time>2026-04-19T16:19:05.001Z</time></trkpt><trkpt lat="46.42979230232185" lon="11.346034044766155"><ele>248.8</ele><time>2026-04-19T16:19:06.001Z</time></trkpt><trkpt lat="46.42970042275499" lon="11.346102067736254"><ele>252.4</ele><time>2026-04-19T16:19:07.001Z</time></trkpt><trkpt lat="46.42961473194292" lon="11.34620560906946"><ele>256.0</ele><time>2026-04-19T16:19:08.001Z</time></trkpt><trkpt lat="46.42953036228195" lon="11.346271594436475"><ele>258.5</ele><time>2026-04-19T16:19:09.001Z</time></trkpt><trkpt lat="46.429516066797724" lon="11.34609735898264"><ele>261.0</ele><time>2026-04-19T16:19:10.001Z</time></trkpt><trkpt lat="46.42951757033995" lon="11.345905339810063"><ele>263.5</ele><time>2026-04-19T16:19:11.001Z</time></trkpt><trkpt lat="46.42952560493042" lon="11.345715140286869"><ele>266.0</ele><time>2026-04-19T16:19:12Z</time></trkpt><trkpt lat="46.42981227041824" lon="11.34500179418087"><ele>257.0</ele><time>2026-04-19T16:19:15Z</time></trkpt><trkpt lat="46.429938617378276" lon="11.344668524681232"><ele>248.0</ele><time>2026-04-19T16:19:16Z</time></trkpt><trkpt lat="46.42999630596943" lon="11.344474338183785"><ele>239.0</ele><time>2026-04-19T16:19:17Z</time></trkpt><trkpt lat="46.429966062428456" lon="11.344358275785929"><ele>239.0</ele><time>2026-04-19T16:19:24Z</time></trkpt><trkpt lat="46.42999658320374" lon="11.344203616390901"><ele>239.0</ele><time>2026-04-19T16:19:26Z</time></trkpt><trkpt lat="46.430017256177194" lon="11.344062616351577"><ele>239.0</ele><time>2026-04-19T16:19:28Z</time></trkpt><trkpt lat="46.43067082347504" lon="11.342347376540031"><ele>238.16666666666669</ele><time>2026-04-19T16:19:37.999Z</time></trkpt><trkpt lat="46.430718450547374" lon="11.342418986509314"><ele>237.33333333333334</ele><time>2026-04-19T16:37:51Z</time></trkpt><trkpt lat="46.43063666156839" lon="11.342388926926507"><ele>236.5</ele><time>2026-04-19T16:44:03Z</time></trkpt><trkpt lat="46.430595403500945" lon="11.342530668622024"><ele>235.66666666666669</ele><time>2026-04-19T16:47:31.998Z</time></trkpt><trkpt lat="46.4306123159146" lon="11.34241747685264"><ele>234.83333333333334</ele><time>2026-04-19T16:47:38.998Z</time></trkpt><trkpt lat="46.43067368618153" lon="11.342438941527444"><ele>234.0</ele><time>2026-04-19T16:47:42.998Z</time></trkpt><trkpt lat="46.43069253956735" lon="11.342329188567591"><ele>234.0</ele><time>2026-04-19T16:48:18Z</time></trkpt><trkpt lat="46.43067162073757" lon="11.342204813256705"><ele>233.99999999999997</ele><time>2026-04-19T16:48:21Z</time></trkpt><trkpt lat="46.430714070634295" lon="11.342060741078186"><ele>233.99999999999997</ele><time>2026-04-19T16:48:23Z</time></trkpt><trkpt lat="46.430692664196286" lon="11.341963571257848"><ele>234.0</ele><time>2026-04-19T16:48:24Z</time></trkpt><trkpt lat="46.430681830673116" lon="11.341823406661028"><ele>234.0</ele><time>2026-04-19T16:48:26Z</time></trkpt><trkpt lat="46.43064351038282" lon="11.341619839227626"><ele>234.0</ele><time>2026-04-19T16:48:29Z</time></trkpt><trkpt lat="46.43058783861976" lon="11.341507034347446"><ele>233.99999999999997</ele><time>2026-04-19T16:48:31Z</time></trkpt><trkpt lat="46.43057211779037" lon="11.341342488819434"><ele>233.99999999999997</ele><time>2026-04-19T16:48:33Z</time></trkpt><trkpt lat="46.43059399863304" lon="11.341213789571842"><ele>234.0</ele><time>2026-04-19T16:48:34Z</time></trkpt><trkpt lat="46.43061981804851" lon="11.341406313100519"><ele>234.0</ele><time>2026-04-19T16:48:36Z</time></trkpt><trkpt lat="46.43064112646268" lon="11.341542261995832"><ele>234.0</ele><time>2026-04-19T16:48:49.999Z</time></trkpt><trkpt lat="46.43069019292995" lon="11.34208750122461"><ele>234.0</ele><time>2026-04-19T16:48:50.999Z</time></trkpt></trkseg></trk></gpx>